<?xml version="1.0" encoding="UTF-8"?>
<gpx version="1.0" creator="Trackator" xmlns:xsi="http://www.w3.org/2001/XMLSchema-instance" xmlns="http://www.topografix.com/GPX/1/0" xmlns:topografix="http://www.topografix.com/GPX/Private/TopoGrafix/0/1" xsi:schemaLocation="http://www.topografix.com/GPX/1/0 http://www.topografix.com/GPX/1/0/gpx.xsd http://www.topografix.com/GPX/Private/TopoGrafix/0/1 http://www.topografix.com/GPX/Private/TopoGrafix/0/1/topografix.xsd">
<metadata>
<link href="http://www.trackalia.com/trackatorweb.php">
<text>Trackator</text>
</link>
</metadata>
<time>2017-12-04T15:47:27Z</time>
<trk>
<name>Track: </name>
<desc>4x4-SUV</desc>
<trkseg>
<trkpt lat="53.9887704" lon="16.4851715">
<ele>218</ele>
<time>2017-12-04T15:47:27Z</time>
</trkpt>
<trkpt lat="53.9887704" lon="16.4851715">
<ele>218</ele>
<time>2017-12-04T15:47:33Z</time>
</trkpt>
<trkpt lat="53.9887704" lon="16.4851715">
<ele>218</ele>
<time>2017-12-04T15:47:39Z</time>
</trkpt>
<trkpt lat="53.9887704" lon="16.4851715">
<ele>218</ele>
<time>2017-12-04T15:47:45Z</time>
</trkpt>
<trkpt lat="53.9887704" lon="16.4851715">
<ele>218</ele>
<time>2017-12-04T15:47:51Z</time>
</trkpt>
<trkpt lat="53.9887704" lon="16.4851715">
<ele>218</ele>
<time>2017-12-04T15:47:57Z</time>
</trkpt>
<trkpt lat="53.9887704" lon="16.4851715">
<ele>218</ele>
<time>2017-12-04T15:48:03Z</time>
</trkpt>
<trkpt lat="53.9887704" lon="16.4851715">
<ele>218</ele>
<time>2017-12-04T15:48:09Z</time>
</trkpt>
<trkpt lat="53.9887704" lon="16.4851715">
<ele>218</ele>
<time>2017-12-04T15:48:15Z</time>
</trkpt>
<trkpt lat="53.9887704" lon="16.4851715">
<ele>218</ele>
<time>2017-12-04T15:48:21Z</time>
</trkpt>
<trkpt lat="53.9887704" lon="16.4851715">
<ele>218</ele>
<time>2017-12-04T15:48:33Z</time>
</trkpt>
<trkpt lat="53.9887704" lon="16.4851715">
<ele>218</ele>
<time>2017-12-04T15:48:39Z</time>
</trkpt>
<trkpt lat="53.9887704" lon="16.4851715">
<ele>218</ele>
<time>2017-12-04T15:48:45Z</time>
</trkpt>
<trkpt lat="53.9887704" lon="16.4851715">
<ele>218</ele>
<time>2017-12-04T15:48:51Z</time>
</trkpt>
<trkpt lat="53.9887704" lon="16.4851715">
<ele>218</ele>
<time>2017-12-04T15:48:57Z</time>
</trkpt>
<trkpt lat="53.9887704" lon="16.4851715">
<ele>218</ele>
<time>2017-12-04T15:49:03Z</time>
</trkpt>
<trkpt lat="53.9887704" lon="16.4851715">
<ele>218</ele>
<time>2017-12-04T15:49:09Z</time>
</trkpt>
<trkpt lat="53.9887704" lon="16.4851715">
<ele>218</ele>
<time>2017-12-04T15:49:15Z</time>
</trkpt>
<trkpt lat="53.9887704" lon="16.4851715">
<ele>218</ele>
<time>2017-12-04T15:49:21Z</time>
</trkpt>
<trkpt lat="53.9887704" lon="16.4851715">
<ele>218</ele>
<time>2017-12-04T15:49:27Z</time>
</trkpt>
<trkpt lat="53.9887704" lon="16.4851715">
<ele>218</ele>
<time>2017-12-04T15:49:33Z</time>
</trkpt>
<trkpt lat="53.9887704" lon="16.4851715">
<ele>218</ele>
<time>2017-12-04T15:49:39Z</time>
</trkpt>
<trkpt lat="53.9887704" lon="16.4851715">
<ele>218</ele>
<time>2017-12-04T15:49:45Z</time>
</trkpt>
<trkpt lat="53.9887704" lon="16.4851715">
<ele>218</ele>
<time>2017-12-04T15:49:51Z</time>
</trkpt>
<trkpt lat="53.9887704" lon="16.4851715">
<ele>218</ele>
<time>2017-12-04T15:49:57Z</time>
</trkpt>
<trkpt lat="53.9887704" lon="16.4851715">
<ele>218</ele>
<time>2017-12-04T15:50:03Z</time>
</trkpt>
<trkpt lat="53.9887465" lon="16.4852236">
<ele>208</ele>
<time>2017-12-04T15:50:09Z</time>
</trkpt>
<trkpt lat="53.9887280" lon="16.4852334">
<ele>206</ele>
<time>2017-12-04T15:50:15Z</time>
</trkpt>
<trkpt lat="53.9887074" lon="16.4851526">
<ele>199</ele>
<time>2017-12-04T15:50:21Z</time>
</trkpt>
<trkpt lat="53.9886625" lon="16.4849612">
<ele>197</ele>
<time>2017-12-04T15:50:27Z</time>
</trkpt>
<trkpt lat="53.9888073" lon="16.4844755">
<ele>194</ele>
<time>2017-12-04T15:50:33Z</time>
</trkpt>
<trkpt lat="53.9891187" lon="16.4838642">
<ele>190</ele>
<time>2017-12-04T15:50:39Z</time>
</trkpt>
<trkpt lat="53.9895164" lon="16.4830956">
<ele>187</ele>
<time>2017-12-04T15:50:45Z</time>
</trkpt>
<trkpt lat="53.9899290" lon="16.4822284">
<ele>184</ele>
<time>2017-12-04T15:50:51Z</time>
</trkpt>
<trkpt lat="53.9902136" lon="16.4810415">
<ele>182</ele>
<time>2017-12-04T15:50:57Z</time>
</trkpt>
<trkpt lat="53.9905185" lon="16.4796631">
<ele>179</ele>
<time>2017-12-04T15:51:03Z</time>
</trkpt>
<trkpt lat="53.9908062" lon="16.4784087">
<ele>178</ele>
<time>2017-12-04T15:51:09Z</time>
</trkpt>
<trkpt lat="53.9910184" lon="16.4774604">
<ele>176</ele>
<time>2017-12-04T15:51:15Z</time>
</trkpt>
<trkpt lat="53.9910407" lon="16.4767393">
<ele>178</ele>
<time>2017-12-04T15:51:21Z</time>
</trkpt>
<trkpt lat="53.9907662" lon="16.4757315">
<ele>176</ele>
<time>2017-12-04T15:51:27Z</time>
</trkpt>
<trkpt lat="53.9904427" lon="16.4745750">
<ele>177</ele>
<time>2017-12-04T15:51:33Z</time>
</trkpt>
<trkpt lat="53.9900840" lon="16.4732831">
<ele>178</ele>
<time>2017-12-04T15:51:39Z</time>
</trkpt>
<trkpt lat="53.9897117" lon="16.4718747">
<ele>179</ele>
<time>2017-12-04T15:51:45Z</time>
</trkpt>
<trkpt lat="53.9893649" lon="16.4704682">
<ele>175</ele>
<time>2017-12-04T15:51:51Z</time>
</trkpt>
<trkpt lat="53.9889626" lon="16.4688892">
<ele>174</ele>
<time>2017-12-04T15:51:57Z</time>
</trkpt>
<trkpt lat="53.9885369" lon="16.4672480">
<ele>174</ele>
<time>2017-12-04T15:52:03Z</time>
</trkpt>
<trkpt lat="53.9881042" lon="16.4655611">
<ele>177</ele>
<time>2017-12-04T15:52:09Z</time>
</trkpt>
<trkpt lat="53.9876577" lon="16.4638270">
<ele>178</ele>
<time>2017-12-04T15:52:15Z</time>
</trkpt>
<trkpt lat="53.9872148" lon="16.4621225">
<ele>178</ele>
<time>2017-12-04T15:52:21Z</time>
</trkpt>
<trkpt lat="53.9867734" lon="16.4604106">
<ele>179</ele>
<time>2017-12-04T15:52:27Z</time>
</trkpt>
<trkpt lat="53.9863219" lon="16.4586823">
<ele>180</ele>
<time>2017-12-04T15:52:33Z</time>
</trkpt>
<trkpt lat="53.9858881" lon="16.4569521">
<ele>180</ele>
<time>2017-12-04T15:52:39Z</time>
</trkpt>
<trkpt lat="53.9854448" lon="16.4552562">
<ele>181</ele>
<time>2017-12-04T15:52:45Z</time>
</trkpt>
<trkpt lat="53.9849915" lon="16.4535176">
<ele>184</ele>
<time>2017-12-04T15:52:51Z</time>
</trkpt>
<trkpt lat="53.9844029" lon="16.4518260">
<ele>189</ele>
<time>2017-12-04T15:52:57Z</time>
</trkpt>
<trkpt lat="53.9837320" lon="16.4502589">
<ele>191</ele>
<time>2017-12-04T15:53:03Z</time>
</trkpt>
<trkpt lat="53.9830596" lon="16.4487126">
<ele>197</ele>
<time>2017-12-04T15:53:09Z</time>
</trkpt>
<trkpt lat="53.9823930" lon="16.4471748">
<ele>199</ele>
<time>2017-12-04T15:53:15Z</time>
</trkpt>
<trkpt lat="53.9817333" lon="16.4456053">
<ele>200</ele>
<time>2017-12-04T15:53:21Z</time>
</trkpt>
<trkpt lat="53.9810421" lon="16.4439991">
<ele>201</ele>
<time>2017-12-04T15:53:27Z</time>
</trkpt>
<trkpt lat="53.9803632" lon="16.4423768">
<ele>201</ele>
<time>2017-12-04T15:53:33Z</time>
</trkpt>
<trkpt lat="53.9796853" lon="16.4407174">
<ele>202</ele>
<time>2017-12-04T15:53:39Z</time>
</trkpt>
<trkpt lat="53.9789883" lon="16.4390725">
<ele>202</ele>
<time>2017-12-04T15:53:45Z</time>
</trkpt>
<trkpt lat="53.9783089" lon="16.4374557">
<ele>203</ele>
<time>2017-12-04T15:53:51Z</time>
</trkpt>
<trkpt lat="53.9776274" lon="16.4358518">
<ele>204</ele>
<time>2017-12-04T15:53:57Z</time>
</trkpt>
<trkpt lat="53.9769725" lon="16.4342273">
<ele>202</ele>
<time>2017-12-04T15:54:03Z</time>
</trkpt>
<trkpt lat="53.9763700" lon="16.4325756">
<ele>200</ele>
<time>2017-12-04T15:54:09Z</time>
</trkpt>
<trkpt lat="53.9757353" lon="16.4310564">
<ele>199</ele>
<time>2017-12-04T15:54:15Z</time>
</trkpt>
<trkpt lat="53.9750448" lon="16.4295055">
<ele>198</ele>
<time>2017-12-04T15:54:21Z</time>
</trkpt>
<trkpt lat="53.9744082" lon="16.4278897">
<ele>197</ele>
<time>2017-12-04T15:54:27Z</time>
</trkpt>
<trkpt lat="53.9737919" lon="16.4263605">
<ele>198</ele>
<time>2017-12-04T15:54:33Z</time>
</trkpt>
<trkpt lat="53.9731899" lon="16.4248558">
<ele>199</ele>
<time>2017-12-04T15:54:39Z</time>
</trkpt>
<trkpt lat="53.9723872" lon="16.4236442">
<ele>200</ele>
<time>2017-12-04T15:54:45Z</time>
</trkpt>
<trkpt lat="53.9714607" lon="16.4225491">
<ele>198</ele>
<time>2017-12-04T15:54:51Z</time>
</trkpt>
<trkpt lat="53.9705441" lon="16.4214492">
<ele>197</ele>
<time>2017-12-04T15:54:57Z</time>
</trkpt>
<trkpt lat="53.9696496" lon="16.4203296">
<ele>196</ele>
<time>2017-12-04T15:55:03Z</time>
</trkpt>
<trkpt lat="53.9687246" lon="16.4192245">
<ele>194</ele>
<time>2017-12-04T15:55:09Z</time>
</trkpt>
<trkpt lat="53.9677798" lon="16.4180781">
<ele>196</ele>
<time>2017-12-04T15:55:15Z</time>
</trkpt>
<trkpt lat="53.9668582" lon="16.4170100">
<ele>191</ele>
<time>2017-12-04T15:55:21Z</time>
</trkpt>
<trkpt lat="53.9659553" lon="16.4159159">
<ele>191</ele>
<time>2017-12-04T15:55:27Z</time>
</trkpt>
<trkpt lat="53.9650631" lon="16.4147634">
<ele>191</ele>
<time>2017-12-04T15:55:33Z</time>
</trkpt>
<trkpt lat="53.9641695" lon="16.4135765">
<ele>192</ele>
<time>2017-12-04T15:55:39Z</time>
</trkpt>
<trkpt lat="53.9632613" lon="16.4123754">
<ele>192</ele>
<time>2017-12-04T15:55:45Z</time>
</trkpt>
<trkpt lat="53.9623379" lon="16.4111681">
<ele>192</ele>
<time>2017-12-04T15:55:51Z</time>
</trkpt>
<trkpt lat="53.9614411" lon="16.4100239">
<ele>182</ele>
<time>2017-12-04T15:55:57Z</time>
</trkpt>
<trkpt lat="53.9605215" lon="16.4088233">
<ele>180</ele>
<time>2017-12-04T15:56:03Z</time>
</trkpt>
<trkpt lat="53.9596182" lon="16.4076230">
<ele>179</ele>
<time>2017-12-04T15:56:09Z</time>
</trkpt>
<trkpt lat="53.9587975" lon="16.4065006">
<ele>178</ele>
<time>2017-12-04T15:56:15Z</time>
</trkpt>
<trkpt lat="53.9580422" lon="16.4052764">
<ele>175</ele>
<time>2017-12-04T15:56:21Z</time>
</trkpt>
<trkpt lat="53.9573263" lon="16.4038863">
<ele>172</ele>
<time>2017-12-04T15:56:27Z</time>
</trkpt>
<trkpt lat="53.9566137" lon="16.4024250">
<ele>169</ele>
<time>2017-12-04T15:56:33Z</time>
</trkpt>
<trkpt lat="53.9559145" lon="16.4011319">
<ele>169</ele>
<time>2017-12-04T15:56:39Z</time>
</trkpt>
<trkpt lat="53.9553004" lon="16.4000481">
<ele>165</ele>
<time>2017-12-04T15:56:45Z</time>
</trkpt>
<trkpt lat="53.9547658" lon="16.3985903">
<ele>162</ele>
<time>2017-12-04T15:56:51Z</time>
</trkpt>
<trkpt lat="53.9541273" lon="16.3969731">
<ele>160</ele>
<time>2017-12-04T15:56:57Z</time>
</trkpt>
<trkpt lat="53.9536059" lon="16.3953235">
<ele>159</ele>
<time>2017-12-04T15:57:03Z</time>
</trkpt>
<trkpt lat="53.9534371" lon="16.3934051">
<ele>159</ele>
<time>2017-12-04T15:57:09Z</time>
</trkpt>
<trkpt lat="53.9532697" lon="16.3913606">
<ele>159</ele>
<time>2017-12-04T15:57:15Z</time>
</trkpt>
<trkpt lat="53.9530985" lon="16.3893232">
<ele>159</ele>
<time>2017-12-04T15:57:21Z</time>
</trkpt>
<trkpt lat="53.9529032" lon="16.3872351">
<ele>159</ele>
<time>2017-12-04T15:57:27Z</time>
</trkpt>
<trkpt lat="53.9527216" lon="16.3851326">
<ele>158</ele>
<time>2017-12-04T15:57:33Z</time>
</trkpt>
<trkpt lat="53.9525586" lon="16.3830131">
<ele>159</ele>
<time>2017-12-04T15:57:39Z</time>
</trkpt>
<trkpt lat="53.9524260" lon="16.3809374">
<ele>162</ele>
<time>2017-12-04T15:57:45Z</time>
</trkpt>
<trkpt lat="53.9522851" lon="16.3789536">
<ele>157</ele>
<time>2017-12-04T15:57:51Z</time>
</trkpt>
<trkpt lat="53.9521250" lon="16.3769602">
<ele>156</ele>
<time>2017-12-04T15:57:57Z</time>
</trkpt>
<trkpt lat="53.9519887" lon="16.3750044">
<ele>158</ele>
<time>2017-12-04T15:58:03Z</time>
</trkpt>
<trkpt lat="53.9518291" lon="16.3730891">
<ele>158</ele>
<time>2017-12-04T15:58:09Z</time>
</trkpt>
<trkpt lat="53.9516520" lon="16.3711039">
<ele>155</ele>
<time>2017-12-04T15:58:15Z</time>
</trkpt>
<trkpt lat="53.9514494" lon="16.3690051">
<ele>153</ele>
<time>2017-12-04T15:58:21Z</time>
</trkpt>
<trkpt lat="53.9511905" lon="16.3669120">
<ele>152</ele>
<time>2017-12-04T15:58:27Z</time>
</trkpt>
<trkpt lat="53.9509245" lon="16.3648167">
<ele>151</ele>
<time>2017-12-04T15:58:33Z</time>
</trkpt>
<trkpt lat="53.9506516" lon="16.3627779">
<ele>151</ele>
<time>2017-12-04T15:58:39Z</time>
</trkpt>
<trkpt lat="53.9503887" lon="16.3608379">
<ele>152</ele>
<time>2017-12-04T15:58:45Z</time>
</trkpt>
<trkpt lat="53.9501668" lon="16.3588375">
<ele>150</ele>
<time>2017-12-04T15:58:51Z</time>
</trkpt>
<trkpt lat="53.9500288" lon="16.3568097">
<ele>151</ele>
<time>2017-12-04T15:58:57Z</time>
</trkpt>
<trkpt lat="53.9499458" lon="16.3548402">
<ele>152</ele>
<time>2017-12-04T15:59:03Z</time>
</trkpt>
<trkpt lat="53.9498835" lon="16.3528493">
<ele>153</ele>
<time>2017-12-04T15:59:09Z</time>
</trkpt>
<trkpt lat="53.9498183" lon="16.3508046">
<ele>147</ele>
<time>2017-12-04T15:59:15Z</time>
</trkpt>
<trkpt lat="53.9497485" lon="16.3488334">
<ele>143</ele>
<time>2017-12-04T15:59:21Z</time>
</trkpt>
<trkpt lat="53.9497019" lon="16.3469170">
<ele>139</ele>
<time>2017-12-04T15:59:27Z</time>
</trkpt>
<trkpt lat="53.9495405" lon="16.3450035">
<ele>138</ele>
<time>2017-12-04T15:59:33Z</time>
</trkpt>
<trkpt lat="53.9493592" lon="16.3430943">
<ele>135</ele>
<time>2017-12-04T15:59:39Z</time>
</trkpt>
<trkpt lat="53.9491794" lon="16.3411568">
<ele>133</ele>
<time>2017-12-04T15:59:45Z</time>
</trkpt>
<trkpt lat="53.9487580" lon="16.3392979">
<ele>130</ele>
<time>2017-12-04T15:59:51Z</time>
</trkpt>
<trkpt lat="53.9481755" lon="16.3375654">
<ele>128</ele>
<time>2017-12-04T15:59:57Z</time>
</trkpt>
<trkpt lat="53.9475805" lon="16.3357973">
<ele>126</ele>
<time>2017-12-04T16:00:03Z</time>
</trkpt>
<trkpt lat="53.9469976" lon="16.3340223">
<ele>125</ele>
<time>2017-12-04T16:00:09Z</time>
</trkpt>
<trkpt lat="53.9465420" lon="16.3322582">
<ele>124</ele>
<time>2017-12-04T16:00:15Z</time>
</trkpt>
<trkpt lat="53.9463028" lon="16.3303203">
<ele>123</ele>
<time>2017-12-04T16:00:21Z</time>
</trkpt>
<trkpt lat="53.9460870" lon="16.3283292">
<ele>121</ele>
<time>2017-12-04T16:00:27Z</time>
</trkpt>
<trkpt lat="53.9458672" lon="16.3263302">
<ele>121</ele>
<time>2017-12-04T16:00:33Z</time>
</trkpt>
<trkpt lat="53.9456380" lon="16.3243001">
<ele>122</ele>
<time>2017-12-04T16:00:39Z</time>
</trkpt>
<trkpt lat="53.9453969" lon="16.3223015">
<ele>122</ele>
<time>2017-12-04T16:00:45Z</time>
</trkpt>
<trkpt lat="53.9450568" lon="16.3203582">
<ele>120</ele>
<time>2017-12-04T16:00:51Z</time>
</trkpt>
<trkpt lat="53.9446570" lon="16.3183907">
<ele>120</ele>
<time>2017-12-04T16:00:57Z</time>
</trkpt>
<trkpt lat="53.9442704" lon="16.3164931">
<ele>126</ele>
<time>2017-12-04T16:01:03Z</time>
</trkpt>
<trkpt lat="53.9438890" lon="16.3146702">
<ele>125</ele>
<time>2017-12-04T16:01:09Z</time>
</trkpt>
<trkpt lat="53.9434845" lon="16.3128075">
<ele>123</ele>
<time>2017-12-04T16:01:15Z</time>
</trkpt>
<trkpt lat="53.9430961" lon="16.3109456">
<ele>123</ele>
<time>2017-12-04T16:01:21Z</time>
</trkpt>
<trkpt lat="53.9426956" lon="16.3090663">
<ele>122</ele>
<time>2017-12-04T16:01:27Z</time>
</trkpt>
<trkpt lat="53.9418583" lon="16.3052383">
<ele>123</ele>
<time>2017-12-04T16:01:39Z</time>
</trkpt>
<trkpt lat="53.9414285" lon="16.3032761">
<ele>124</ele>
<time>2017-12-04T16:01:45Z</time>
</trkpt>
<trkpt lat="53.9409948" lon="16.3012919">
<ele>125</ele>
<time>2017-12-04T16:01:51Z</time>
</trkpt>
<trkpt lat="53.9405609" lon="16.2993742">
<ele>125</ele>
<time>2017-12-04T16:01:57Z</time>
</trkpt>
<trkpt lat="53.9401402" lon="16.2973815">
<ele>126</ele>
<time>2017-12-04T16:02:03Z</time>
</trkpt>
<trkpt lat="53.9397514" lon="16.2954774">
<ele>126</ele>
<time>2017-12-04T16:02:09Z</time>
</trkpt>
<trkpt lat="53.9393260" lon="16.2935361">
<ele>127</ele>
<time>2017-12-04T16:02:15Z</time>
</trkpt>
<trkpt lat="53.9389034" lon="16.2915104">
<ele>126</ele>
<time>2017-12-04T16:02:21Z</time>
</trkpt>
<trkpt lat="53.9385009" lon="16.2894900">
<ele>127</ele>
<time>2017-12-04T16:02:27Z</time>
</trkpt>
<trkpt lat="53.9380835" lon="16.2874989">
<ele>131</ele>
<time>2017-12-04T16:02:33Z</time>
</trkpt>
<trkpt lat="53.9376733" lon="16.2854964">
<ele>132</ele>
<time>2017-12-04T16:02:39Z</time>
</trkpt>
<trkpt lat="53.9372944" lon="16.2835530">
<ele>126</ele>
<time>2017-12-04T16:02:45Z</time>
</trkpt>
<trkpt lat="53.9369136" lon="16.2816257">
<ele>125</ele>
<time>2017-12-04T16:02:51Z</time>
</trkpt>
<trkpt lat="53.9365279" lon="16.2797404">
<ele>124</ele>
<time>2017-12-04T16:02:57Z</time>
</trkpt>
<trkpt lat="53.9360732" lon="16.2780009">
<ele>122</ele>
<time>2017-12-04T16:03:03Z</time>
</trkpt>
<trkpt lat="53.9355758" lon="16.2764701">
<ele>120</ele>
<time>2017-12-04T16:03:09Z</time>
</trkpt>
<trkpt lat="53.9351411" lon="16.2751417">
<ele>118</ele>
<time>2017-12-04T16:03:15Z</time>
</trkpt>
<trkpt lat="53.9347547" lon="16.2739560">
<ele>117</ele>
<time>2017-12-04T16:03:21Z</time>
</trkpt>
<trkpt lat="53.9344376" lon="16.2729248">
<ele>118</ele>
<time>2017-12-04T16:03:27Z</time>
</trkpt>
<trkpt lat="53.9340991" lon="16.2719284">
<ele>118</ele>
<time>2017-12-04T16:03:33Z</time>
</trkpt>
<trkpt lat="53.9337426" lon="16.2708886">
<ele>118</ele>
<time>2017-12-04T16:03:39Z</time>
</trkpt>
<trkpt lat="53.9333809" lon="16.2698440">
<ele>117</ele>
<time>2017-12-04T16:03:45Z</time>
</trkpt>
<trkpt lat="53.9330177" lon="16.2687478">
<ele>117</ele>
<time>2017-12-04T16:03:51Z</time>
</trkpt>
<trkpt lat="53.9326603" lon="16.2676552">
<ele>117</ele>
<time>2017-12-04T16:03:57Z</time>
</trkpt>
<trkpt lat="53.9323112" lon="16.2665555">
<ele>117</ele>
<time>2017-12-04T16:04:03Z</time>
</trkpt>
<trkpt lat="53.9318636" lon="16.2655718">
<ele>116</ele>
<time>2017-12-04T16:04:09Z</time>
</trkpt>
<trkpt lat="53.9313124" lon="16.2648357">
<ele>114</ele>
<time>2017-12-04T16:04:15Z</time>
</trkpt>
<trkpt lat="53.9309680" lon="16.2638457">
<ele>113</ele>
<time>2017-12-04T16:04:21Z</time>
</trkpt>
<trkpt lat="53.9308622" lon="16.2627130">
<ele>113</ele>
<time>2017-12-04T16:04:27Z</time>
</trkpt>
<trkpt lat="53.9307847" lon="16.2616596">
<ele>116</ele>
<time>2017-12-04T16:04:33Z</time>
</trkpt>
<trkpt lat="53.9307106" lon="16.2606871">
<ele>116</ele>
<time>2017-12-04T16:04:39Z</time>
</trkpt>
<trkpt lat="53.9304383" lon="16.2599347">
<ele>119</ele>
<time>2017-12-04T16:04:45Z</time>
</trkpt>
<trkpt lat="53.9298676" lon="16.2594185">
<ele>122</ele>
<time>2017-12-04T16:04:51Z</time>
</trkpt>
<trkpt lat="53.9292748" lon="16.2588770">
<ele>119</ele>
<time>2017-12-04T16:04:57Z</time>
</trkpt>
<trkpt lat="53.9286625" lon="16.2584073">
<ele>117</ele>
<time>2017-12-04T16:05:03Z</time>
</trkpt>
<trkpt lat="53.9280698" lon="16.2579273">
<ele>116</ele>
<time>2017-12-04T16:05:09Z</time>
</trkpt>
<trkpt lat="53.9275416" lon="16.2572484">
<ele>115</ele>
<time>2017-12-04T16:05:15Z</time>
</trkpt>
<trkpt lat="53.9271522" lon="16.2562466">
<ele>113</ele>
<time>2017-12-04T16:05:21Z</time>
</trkpt>
<trkpt lat="53.9267786" lon="16.2552158">
<ele>111</ele>
<time>2017-12-04T16:05:27Z</time>
</trkpt>
<trkpt lat="53.9264007" lon="16.2542208">
<ele>111</ele>
<time>2017-12-04T16:05:33Z</time>
</trkpt>
<trkpt lat="53.9260580" lon="16.2532464">
<ele>111</ele>
<time>2017-12-04T16:05:39Z</time>
</trkpt>
<trkpt lat="53.9258933" lon="16.2526140">
<ele>109</ele>
<time>2017-12-04T16:05:45Z</time>
</trkpt>
<trkpt lat="53.9260114" lon="16.2521793">
<ele>109</ele>
<time>2017-12-04T16:05:51Z</time>
</trkpt>
<trkpt lat="53.9261192" lon="16.2513333">
<ele>109</ele>
<time>2017-12-04T16:05:57Z</time>
</trkpt>
<trkpt lat="53.9262292" lon="16.2501915">
<ele>108</ele>
<time>2017-12-04T16:06:03Z</time>
</trkpt>
<trkpt lat="53.9264101" lon="16.2487463">
<ele>107</ele>
<time>2017-12-04T16:06:09Z</time>
</trkpt>
<trkpt lat="53.9266193" lon="16.2470476">
<ele>107</ele>
<time>2017-12-04T16:06:15Z</time>
</trkpt>
<trkpt lat="53.9268279" lon="16.2453559">
<ele>106</ele>
<time>2017-12-04T16:06:21Z</time>
</trkpt>
<trkpt lat="53.9270510" lon="16.2435874">
<ele>106</ele>
<time>2017-12-04T16:06:27Z</time>
</trkpt>
<trkpt lat="53.9272882" lon="16.2417856">
<ele>107</ele>
<time>2017-12-04T16:06:33Z</time>
</trkpt>
<trkpt lat="53.9275196" lon="16.2399423">
<ele>106</ele>
<time>2017-12-04T16:06:39Z</time>
</trkpt>
<trkpt lat="53.9277665" lon="16.2380340">
<ele>105</ele>
<time>2017-12-04T16:06:45Z</time>
</trkpt>
<trkpt lat="53.9279939" lon="16.2360669">
<ele>105</ele>
<time>2017-12-04T16:06:51Z</time>
</trkpt>
<trkpt lat="53.9282455" lon="16.2340826">
<ele>107</ele>
<time>2017-12-04T16:06:57Z</time>
</trkpt>
<trkpt lat="53.9284856" lon="16.2321295">
<ele>109</ele>
<time>2017-12-04T16:07:03Z</time>
</trkpt>
<trkpt lat="53.9287265" lon="16.2302156">
<ele>110</ele>
<time>2017-12-04T16:07:09Z</time>
</trkpt>
<trkpt lat="53.9289644" lon="16.2283492">
<ele>113</ele>
<time>2017-12-04T16:07:15Z</time>
</trkpt>
<trkpt lat="53.9291947" lon="16.2265372">
<ele>113</ele>
<time>2017-12-04T16:07:21Z</time>
</trkpt>
<trkpt lat="53.9293539" lon="16.2247514">
<ele>108</ele>
<time>2017-12-04T16:07:27Z</time>
</trkpt>
<trkpt lat="53.9293107" lon="16.2228673">
<ele>104</ele>
<time>2017-12-04T16:07:33Z</time>
</trkpt>
<trkpt lat="53.9293008" lon="16.2209891">
<ele>103</ele>
<time>2017-12-04T16:07:39Z</time>
</trkpt>
<trkpt lat="53.9292821" lon="16.2191448">
<ele>102</ele>
<time>2017-12-04T16:07:45Z</time>
</trkpt>
<trkpt lat="53.9291075" lon="16.2173512">
<ele>102</ele>
<time>2017-12-04T16:07:51Z</time>
</trkpt>
<trkpt lat="53.9287580" lon="16.2156273">
<ele>101</ele>
<time>2017-12-04T16:07:57Z</time>
</trkpt>
<trkpt lat="53.9284089" lon="16.2138236">
<ele>99</ele>
<time>2017-12-04T16:08:03Z</time>
</trkpt>
<trkpt lat="53.9280506" lon="16.2119549">
<ele>98</ele>
<time>2017-12-04T16:08:09Z</time>
</trkpt>
<trkpt lat="53.9277050" lon="16.2100899">
<ele>99</ele>
<time>2017-12-04T16:08:15Z</time>
</trkpt>
<trkpt lat="53.9273619" lon="16.2082562">
<ele>100</ele>
<time>2017-12-04T16:08:21Z</time>
</trkpt>
<trkpt lat="53.9270247" lon="16.2064841">
<ele>101</ele>
<time>2017-12-04T16:08:27Z</time>
</trkpt>
<trkpt lat="53.9266796" lon="16.2048064">
<ele>100</ele>
<time>2017-12-04T16:08:33Z</time>
</trkpt>
<trkpt lat="53.9266527" lon="16.2034027">
<ele>102</ele>
<time>2017-12-04T16:08:39Z</time>
</trkpt>
<trkpt lat="53.9268855" lon="16.2020239">
<ele>103</ele>
<time>2017-12-04T16:08:45Z</time>
</trkpt>
<trkpt lat="53.9271033" lon="16.2007731">
<ele>105</ele>
<time>2017-12-04T16:08:51Z</time>
</trkpt>
<trkpt lat="53.9270819" lon="16.1996116">
<ele>106</ele>
<time>2017-12-04T16:08:57Z</time>
</trkpt>
<trkpt lat="53.9272633" lon="16.1983394">
<ele>108</ele>
<time>2017-12-04T16:09:03Z</time>
</trkpt>
<trkpt lat="53.9276066" lon="16.1969113">
<ele>108</ele>
<time>2017-12-04T16:09:09Z</time>
</trkpt>
<trkpt lat="53.9280023" lon="16.1952676">
<ele>106</ele>
<time>2017-12-04T16:09:15Z</time>
</trkpt>
<trkpt lat="53.9284319" lon="16.1934490">
<ele>104</ele>
<time>2017-12-04T16:09:21Z</time>
</trkpt>
<trkpt lat="53.9288815" lon="16.1915219">
<ele>104</ele>
<time>2017-12-04T16:09:27Z</time>
</trkpt>
<trkpt lat="53.9293363" lon="16.1895448">
<ele>104</ele>
<time>2017-12-04T16:09:33Z</time>
</trkpt>
<trkpt lat="53.9297957" lon="16.1875234">
<ele>104</ele>
<time>2017-12-04T16:09:39Z</time>
</trkpt>
<trkpt lat="53.9302790" lon="16.1854553">
<ele>103</ele>
<time>2017-12-04T16:09:45Z</time>
</trkpt>
<trkpt lat="53.9307618" lon="16.1833715">
<ele>104</ele>
<time>2017-12-04T16:09:51Z</time>
</trkpt>
<trkpt lat="53.9312346" lon="16.1812843">
<ele>104</ele>
<time>2017-12-04T16:09:57Z</time>
</trkpt>
<trkpt lat="53.9316964" lon="16.1792442">
<ele>105</ele>
<time>2017-12-04T16:10:03Z</time>
</trkpt>
<trkpt lat="53.9321462" lon="16.1773140">
<ele>105</ele>
<time>2017-12-04T16:10:09Z</time>
</trkpt>
<trkpt lat="53.9325214" lon="16.1754047">
<ele>105</ele>
<time>2017-12-04T16:10:15Z</time>
</trkpt>
<trkpt lat="53.9326636" lon="16.1733837">
<ele>105</ele>
<time>2017-12-04T16:10:21Z</time>
</trkpt>
<trkpt lat="53.9326898" lon="16.1713608">
<ele>106</ele>
<time>2017-12-04T16:10:27Z</time>
</trkpt>
<trkpt lat="53.9327193" lon="16.1693598">
<ele>107</ele>
<time>2017-12-04T16:10:33Z</time>
</trkpt>
<trkpt lat="53.9327622" lon="16.1673366">
<ele>108</ele>
<time>2017-12-04T16:10:39Z</time>
</trkpt>
<trkpt lat="53.9327800" lon="16.1652618">
<ele>108</ele>
<time>2017-12-04T16:10:45Z</time>
</trkpt>
<trkpt lat="53.9328181" lon="16.1631358">
<ele>109</ele>
<time>2017-12-04T16:10:51Z</time>
</trkpt>
<trkpt lat="53.9328844" lon="16.1610163">
<ele>110</ele>
<time>2017-12-04T16:10:57Z</time>
</trkpt>
<trkpt lat="53.9329347" lon="16.1588873">
<ele>111</ele>
<time>2017-12-04T16:11:03Z</time>
</trkpt>
<trkpt lat="53.9329915" lon="16.1567516">
<ele>113</ele>
<time>2017-12-04T16:11:09Z</time>
</trkpt>
<trkpt lat="53.9330684" lon="16.1545848">
<ele>114</ele>
<time>2017-12-04T16:11:15Z</time>
</trkpt>
<trkpt lat="53.9331394" lon="16.1524041">
<ele>114</ele>
<time>2017-12-04T16:11:21Z</time>
</trkpt>
<trkpt lat="53.9331992" lon="16.1502137">
<ele>115</ele>
<time>2017-12-04T16:11:27Z</time>
</trkpt>
<trkpt lat="53.9332427" lon="16.1480858">
<ele>115</ele>
<time>2017-12-04T16:11:33Z</time>
</trkpt>
<trkpt lat="53.9332551" lon="16.1465105">
<ele>114</ele>
<time>2017-12-04T16:11:39Z</time>
</trkpt>
<trkpt lat="53.9333183" lon="16.1453993">
<ele>115</ele>
<time>2017-12-04T16:11:45Z</time>
</trkpt>
<trkpt lat="53.9334394" lon="16.1445511">
<ele>118</ele>
<time>2017-12-04T16:11:51Z</time>
</trkpt>
<trkpt lat="53.9333399" lon="16.1440138">
<ele>116</ele>
<time>2017-12-04T16:11:57Z</time>
</trkpt>
<trkpt lat="53.9333458" lon="16.1432432">
<ele>116</ele>
<time>2017-12-04T16:12:03Z</time>
</trkpt>
<trkpt lat="53.9333892" lon="16.1419799">
<ele>116</ele>
<time>2017-12-04T16:12:09Z</time>
</trkpt>
<trkpt lat="53.9334258" lon="16.1405933">
<ele>117</ele>
<time>2017-12-04T16:12:15Z</time>
</trkpt>
<trkpt lat="53.9334453" lon="16.1389717">
<ele>115</ele>
<time>2017-12-04T16:12:21Z</time>
</trkpt>
<trkpt lat="53.9334603" lon="16.1371860">
<ele>112</ele>
<time>2017-12-04T16:12:27Z</time>
</trkpt>
<trkpt lat="53.9335208" lon="16.1353734">
<ele>111</ele>
<time>2017-12-04T16:12:33Z</time>
</trkpt>
<trkpt lat="53.9335783" lon="16.1334236">
<ele>109</ele>
<time>2017-12-04T16:12:39Z</time>
</trkpt>
<trkpt lat="53.9336230" lon="16.1313699">
<ele>109</ele>
<time>2017-12-04T16:12:45Z</time>
</trkpt>
<trkpt lat="53.9336891" lon="16.1292331">
<ele>108</ele>
<time>2017-12-04T16:12:51Z</time>
</trkpt>
<trkpt lat="53.9337447" lon="16.1270150">
<ele>107</ele>
<time>2017-12-04T16:12:57Z</time>
</trkpt>
<trkpt lat="53.9337968" lon="16.1247349">
<ele>108</ele>
<time>2017-12-04T16:13:03Z</time>
</trkpt>
<trkpt lat="53.9338575" lon="16.1224367">
<ele>109</ele>
<time>2017-12-04T16:13:09Z</time>
</trkpt>
<trkpt lat="53.9339297" lon="16.1202048">
<ele>110</ele>
<time>2017-12-04T16:13:15Z</time>
</trkpt>
<trkpt lat="53.9340066" lon="16.1180173">
<ele>110</ele>
<time>2017-12-04T16:13:21Z</time>
</trkpt>
<trkpt lat="53.9340587" lon="16.1158393">
<ele>110</ele>
<time>2017-12-04T16:13:27Z</time>
</trkpt>
<trkpt lat="53.9340517" lon="16.1137394">
<ele>113</ele>
<time>2017-12-04T16:13:33Z</time>
</trkpt>
<trkpt lat="53.9336910" lon="16.1119553">
<ele>112</ele>
<time>2017-12-04T16:13:39Z</time>
</trkpt>
<trkpt lat="53.9335230" lon="16.1101794">
<ele>112</ele>
<time>2017-12-04T16:13:45Z</time>
</trkpt>
<trkpt lat="53.9335552" lon="16.1082684">
<ele>110</ele>
<time>2017-12-04T16:13:51Z</time>
</trkpt>
<trkpt lat="53.9335847" lon="16.1062863">
<ele>109</ele>
<time>2017-12-04T16:13:57Z</time>
</trkpt>
<trkpt lat="53.9336254" lon="16.1042796">
<ele>110</ele>
<time>2017-12-04T16:14:03Z</time>
</trkpt>
<trkpt lat="53.9336783" lon="16.1022507">
<ele>109</ele>
<time>2017-12-04T16:14:09Z</time>
</trkpt>
<trkpt lat="53.9337265" lon="16.1001835">
<ele>108</ele>
<time>2017-12-04T16:14:15Z</time>
</trkpt>
<trkpt lat="53.9337644" lon="16.0981065">
<ele>107</ele>
<time>2017-12-04T16:14:21Z</time>
</trkpt>
<trkpt lat="53.9339161" lon="16.0960793">
<ele>107</ele>
<time>2017-12-04T16:14:27Z</time>
</trkpt>
<trkpt lat="53.9342125" lon="16.0941228">
<ele>107</ele>
<time>2017-12-04T16:14:33Z</time>
</trkpt>
<trkpt lat="53.9346783" lon="16.0922591">
<ele>107</ele>
<time>2017-12-04T16:14:39Z</time>
</trkpt>
<trkpt lat="53.9353115" lon="16.0905360">
<ele>108</ele>
<time>2017-12-04T16:14:45Z</time>
</trkpt>
<trkpt lat="53.9360109" lon="16.0888890">
<ele>110</ele>
<time>2017-12-04T16:14:51Z</time>
</trkpt>
<trkpt lat="53.9367252" lon="16.0872731">
<ele>111</ele>
<time>2017-12-04T16:14:57Z</time>
</trkpt>
<trkpt lat="53.9374336" lon="16.0856826">
<ele>112</ele>
<time>2017-12-04T16:15:03Z</time>
</trkpt>
<trkpt lat="53.9381367" lon="16.0840503">
<ele>114</ele>
<time>2017-12-04T16:15:09Z</time>
</trkpt>
<trkpt lat="53.9388634" lon="16.0823958">
<ele>110</ele>
<time>2017-12-04T16:15:15Z</time>
</trkpt>
<trkpt lat="53.9396019" lon="16.0807092">
<ele>111</ele>
<time>2017-12-04T16:15:21Z</time>
</trkpt>
<trkpt lat="53.9403468" lon="16.0790369">
<ele>111</ele>
<time>2017-12-04T16:15:27Z</time>
</trkpt>
<trkpt lat="53.9411061" lon="16.0773356">
<ele>107</ele>
<time>2017-12-04T16:15:33Z</time>
</trkpt>
<trkpt lat="53.9418691" lon="16.0756088">
<ele>107</ele>
<time>2017-12-04T16:15:39Z</time>
</trkpt>
<trkpt lat="53.9426167" lon="16.0739035">
<ele>107</ele>
<time>2017-12-04T16:15:45Z</time>
</trkpt>
<trkpt lat="53.9433580" lon="16.0721911">
<ele>103</ele>
<time>2017-12-04T16:15:51Z</time>
</trkpt>
<trkpt lat="53.9441172" lon="16.0704345">
<ele>100</ele>
<time>2017-12-04T16:15:57Z</time>
</trkpt>
<trkpt lat="53.9448874" lon="16.0687254">
<ele>99</ele>
<time>2017-12-04T16:16:03Z</time>
</trkpt>
<trkpt lat="53.9456040" lon="16.0671032">
<ele>99</ele>
<time>2017-12-04T16:16:09Z</time>
</trkpt>
<trkpt lat="53.9462185" lon="16.0657165">
<ele>96</ele>
<time>2017-12-04T16:16:15Z</time>
</trkpt>
<trkpt lat="53.9467139" lon="16.0644580">
<ele>91</ele>
<time>2017-12-04T16:16:21Z</time>
</trkpt>
<trkpt lat="53.9470388" lon="16.0630666">
<ele>88</ele>
<time>2017-12-04T16:16:27Z</time>
</trkpt>
<trkpt lat="53.9472564" lon="16.0618806">
<ele>83</ele>
<time>2017-12-04T16:16:33Z</time>
</trkpt>
<trkpt lat="53.9474362" lon="16.0611997">
<ele>81</ele>
<time>2017-12-04T16:16:39Z</time>
</trkpt>
<trkpt lat="53.9477389" lon="16.0611480">
<ele>80</ele>
<time>2017-12-04T16:16:45Z</time>
</trkpt>
<trkpt lat="53.9482974" lon="16.0614405">
<ele>78</ele>
<time>2017-12-04T16:16:51Z</time>
</trkpt>
<trkpt lat="53.9499299" lon="16.0611834">
<ele>77</ele>
<time>2017-12-04T16:17:03Z</time>
</trkpt>
<trkpt lat="53.9508025" lon="16.0607338">
<ele>76</ele>
<time>2017-12-04T16:17:09Z</time>
</trkpt>
<trkpt lat="53.9517265" lon="16.0602302">
<ele>76</ele>
<time>2017-12-04T16:17:15Z</time>
</trkpt>
<trkpt lat="53.9526685" lon="16.0597119">
<ele>75</ele>
<time>2017-12-04T16:17:21Z</time>
</trkpt>
<trkpt lat="53.9536277" lon="16.0592007">
<ele>75</ele>
<time>2017-12-04T16:17:27Z</time>
</trkpt>
<trkpt lat="53.9546568" lon="16.0586675">
<ele>76</ele>
<time>2017-12-04T16:17:33Z</time>
</trkpt>
<trkpt lat="53.9556843" lon="16.0581094">
<ele>78</ele>
<time>2017-12-04T16:17:39Z</time>
</trkpt>
<trkpt lat="53.9567103" lon="16.0575459">
<ele>79</ele>
<time>2017-12-04T16:17:45Z</time>
</trkpt>
<trkpt lat="53.9577039" lon="16.0567838">
<ele>79</ele>
<time>2017-12-04T16:17:51Z</time>
</trkpt>
<trkpt lat="53.9586453" lon="16.0558394">
<ele>79</ele>
<time>2017-12-04T16:17:57Z</time>
</trkpt>
<trkpt lat="53.9592896" lon="16.0551890">
<ele>79</ele>
<time>2017-12-04T16:18:03Z</time>
</trkpt>
<trkpt lat="53.9598442" lon="16.0546562">
<ele>76</ele>
<time>2017-12-04T16:18:09Z</time>
</trkpt>
<trkpt lat="53.9604401" lon="16.0540591">
<ele>73</ele>
<time>2017-12-04T16:18:15Z</time>
</trkpt>
<trkpt lat="53.9611084" lon="16.0533703">
<ele>70</ele>
<time>2017-12-04T16:18:21Z</time>
</trkpt>
<trkpt lat="53.9618272" lon="16.0526018">
<ele>66</ele>
<time>2017-12-04T16:18:27Z</time>
</trkpt>
<trkpt lat="53.9641" lon="16.0503">
<ele>61</ele>
<time>2017-12-04T16:18:45Z</time>
</trkpt>
<trkpt lat="53.9648" lon="16.0496">
<ele>62</ele>
<time>2017-12-04T16:18:51Z</time>
</trkpt>
<trkpt lat="53.9655" lon="16.0488">
<ele>61</ele>
<time>2017-12-04T16:18:57Z</time>
</trkpt>
<trkpt lat="53.9663" lon="16.048">
<ele>62</ele>
<time>2017-12-04T16:19:03Z</time>
</trkpt>
<trkpt lat="53.9671" lon="16.0472">
<ele>60</ele>
<time>2017-12-04T16:19:09Z</time>
</trkpt>
<trkpt lat="53.9677" lon="16.0466">
<ele>60</ele>
<time>2017-12-04T16:19:15Z</time>
</trkpt>
<trkpt lat="53.9683" lon="16.046">
<ele>55</ele>
<time>2017-12-04T16:19:21Z</time>
</trkpt>
<trkpt lat="53.9689" lon="16.0454">
<ele>56</ele>
<time>2017-12-04T16:19:27Z</time>
</trkpt>
<trkpt lat="53.9694" lon="16.0448">
<ele>56</ele>
<time>2017-12-04T16:19:33Z</time>
</trkpt>
<trkpt lat="53.9698" lon="16.0444">
<ele>53</ele>
<time>2017-12-04T16:19:39Z</time>
</trkpt>
<trkpt lat="53.9703" lon="16.0439">
<ele>50</ele>
<time>2017-12-04T16:19:45Z</time>
</trkpt>
<trkpt lat="53.971" lon="16.0431">
<ele>51</ele>
<time>2017-12-04T16:19:51Z</time>
</trkpt>
<trkpt lat="53.9719" lon="16.0423">
<ele>50</ele>
<time>2017-12-04T16:19:57Z</time>
</trkpt>
<trkpt lat="53.9727" lon="16.0414">
<ele>46</ele>
<time>2017-12-04T16:20:03Z</time>
</trkpt>
<trkpt lat="53.9736" lon="16.0404">
<ele>46</ele>
<time>2017-12-04T16:20:09Z</time>
</trkpt>
<trkpt lat="53.9744" lon="16.0396">
<ele>49</ele>
<time>2017-12-04T16:20:15Z</time>
</trkpt>
<trkpt lat="53.9752" lon="16.0388">
<ele>55</ele>
<time>2017-12-04T16:20:21Z</time>
</trkpt>
<trkpt lat="53.9757" lon="16.0377">
<ele>58</ele>
<time>2017-12-04T16:20:27Z</time>
</trkpt>
<trkpt lat="53.9763" lon="16.0366">
<ele>60</ele>
<time>2017-12-04T16:20:33Z</time>
</trkpt>
<trkpt lat="53.9768" lon="16.0355">
<ele>61</ele>
<time>2017-12-04T16:20:39Z</time>
</trkpt>
<trkpt lat="53.9774" lon="16.0344">
<ele>60</ele>
<time>2017-12-04T16:20:45Z</time>
</trkpt>
<trkpt lat="53.9779" lon="16.0332">
<ele>61</ele>
<time>2017-12-04T16:20:51Z</time>
</trkpt>
<trkpt lat="53.9786" lon="16.032">
<ele>61</ele>
<time>2017-12-04T16:20:57Z</time>
</trkpt>
<trkpt lat="53.9792" lon="16.0307">
<ele>62</ele>
<time>2017-12-04T16:21:03Z</time>
</trkpt>
<trkpt lat="53.9799" lon="16.0294">
<ele>62</ele>
<time>2017-12-04T16:21:09Z</time>
</trkpt>
<trkpt lat="53.9806" lon="16.028">
<ele>63</ele>
<time>2017-12-04T16:21:15Z</time>
</trkpt>
<trkpt lat="53.9813" lon="16.0267">
<ele>61</ele>
<time>2017-12-04T16:21:21Z</time>
</trkpt>
<trkpt lat="53.982" lon="16.0253">
<ele>62</ele>
<time>2017-12-04T16:21:27Z</time>
</trkpt>
<trkpt lat="53.9827" lon="16.0239">
<ele>61</ele>
<time>2017-12-04T16:21:33Z</time>
</trkpt>
<trkpt lat="53.9834" lon="16.0225">
<ele>62</ele>
<time>2017-12-04T16:21:39Z</time>
</trkpt>
<trkpt lat="53.9841" lon="16.0211">
<ele>61</ele>
<time>2017-12-04T16:21:45Z</time>
</trkpt>
<trkpt lat="53.9848" lon="16.0198">
<ele>60</ele>
<time>2017-12-04T16:21:51Z</time>
</trkpt>
<trkpt lat="53.9854" lon="16.0185">
<ele>59</ele>
<time>2017-12-04T16:21:57Z</time>
</trkpt>
<trkpt lat="53.986" lon="16.0173">
<ele>59</ele>
<time>2017-12-04T16:22:03Z</time>
</trkpt>
<trkpt lat="53.9865" lon="16.0162">
<ele>59</ele>
<time>2017-12-04T16:22:09Z</time>
</trkpt>
<trkpt lat="53.9871" lon="16.0153">
<ele>58</ele>
<time>2017-12-04T16:22:15Z</time>
</trkpt>
<trkpt lat="53.9876" lon="16.0144">
<ele>58</ele>
<time>2017-12-04T16:22:21Z</time>
</trkpt>
<trkpt lat="53.9881" lon="16.0135">
<ele>57</ele>
<time>2017-12-04T16:22:27Z</time>
</trkpt>
<trkpt lat="53.9887" lon="16.0126">
<ele>56</ele>
<time>2017-12-04T16:22:33Z</time>
</trkpt>
<trkpt lat="53.9892" lon="16.0117">
<ele>55</ele>
<time>2017-12-04T16:22:39Z</time>
</trkpt>
<trkpt lat="53.9898" lon="16.0108">
<ele>54</ele>
<time>2017-12-04T16:22:45Z</time>
</trkpt>
<trkpt lat="53.9903" lon="16.0099">
<ele>53</ele>
<time>2017-12-04T16:22:51Z</time>
</trkpt>
<trkpt lat="53.9908" lon="16.0089">
<ele>52</ele>
<time>2017-12-04T16:22:57Z</time>
</trkpt>
<trkpt lat="53.9914" lon="16.008">
<ele>52</ele>
<time>2017-12-04T16:23:03Z</time>
</trkpt>
<trkpt lat="53.9919" lon="16.007">
<ele>52</ele>
<time>2017-12-04T16:23:09Z</time>
</trkpt>
<trkpt lat="53.9925" lon="16.0061">
<ele>52</ele>
<time>2017-12-04T16:23:15Z</time>
</trkpt>
<trkpt lat="53.9931" lon="16.0051">
<ele>54</ele>
<time>2017-12-04T16:23:21Z</time>
</trkpt>
<trkpt lat="53.9937" lon="16.0041">
<ele>53</ele>
<time>2017-12-04T16:23:27Z</time>
</trkpt>
<trkpt lat="53.9942" lon="16.0032">
<ele>53</ele>
<time>2017-12-04T16:23:33Z</time>
</trkpt>
<trkpt lat="53.9946" lon="16.0023">
<ele>53</ele>
<time>2017-12-04T16:23:39Z</time>
</trkpt>
<trkpt lat="53.995" lon="16.0014">
<ele>54</ele>
<time>2017-12-04T16:23:45Z</time>
</trkpt>
<trkpt lat="53.9954" lon="16.0005">
<ele>55</ele>
<time>2017-12-04T16:23:51Z</time>
</trkpt>
<trkpt lat="53.9958" lon="15.9996">
<ele>56</ele>
<time>2017-12-04T16:23:57Z</time>
</trkpt>
<trkpt lat="53.9962" lon="15.9987">
<ele>56</ele>
<time>2017-12-04T16:24:03Z</time>
</trkpt>
<trkpt lat="53.9966" lon="15.9978">
<ele>54</ele>
<time>2017-12-04T16:24:09Z</time>
</trkpt>
<trkpt lat="53.997" lon="15.9969">
<ele>55</ele>
<time>2017-12-04T16:24:15Z</time>
</trkpt>
<trkpt lat="53.9974" lon="15.996">
<ele>56</ele>
<time>2017-12-04T16:24:21Z</time>
</trkpt>
<trkpt lat="53.9977" lon="15.9952">
<ele>57</ele>
<time>2017-12-04T16:24:27Z</time>
</trkpt>
<trkpt lat="53.9981" lon="15.9945">
<ele>57</ele>
<time>2017-12-04T16:24:33Z</time>
</trkpt>
<trkpt lat="53.9982" lon="15.994">
<ele>58</ele>
<time>2017-12-04T16:24:39Z</time>
</trkpt>
<trkpt lat="53.9987" lon="15.9926">
<ele>59</ele>
<time>2017-12-04T16:24:57Z</time>
</trkpt>
<trkpt lat="53.999" lon="15.9918">
<ele>59</ele>
<time>2017-12-04T16:25:03Z</time>
</trkpt>
<trkpt lat="53.9993" lon="15.9909">
<ele>58</ele>
<time>2017-12-04T16:25:09Z</time>
</trkpt>
<trkpt lat="53.9997" lon="15.9899">
<ele>59</ele>
<time>2017-12-04T16:25:15Z</time>
</trkpt>
<trkpt lat="54.0003" lon="15.9891">
<ele>59</ele>
<time>2017-12-04T16:25:21Z</time>
</trkpt>
<trkpt lat="54.001" lon="15.9883">
<ele>59</ele>
<time>2017-12-04T16:25:27Z</time>
</trkpt>
<trkpt lat="54.0029" lon="15.9862">
<ele>58</ele>
<time>2017-12-04T16:25:45Z</time>
</trkpt>
<trkpt lat="54.0033" lon="15.9852">
<ele>57</ele>
<time>2017-12-04T16:25:51Z</time>
</trkpt>
<trkpt lat="54.0036" lon="15.9843">
<ele>57</ele>
<time>2017-12-04T16:25:57Z</time>
</trkpt>
<trkpt lat="54.0039" lon="15.9835">
<ele>58</ele>
<time>2017-12-04T16:26:03Z</time>
</trkpt>
<trkpt lat="54.004" lon="15.983">
<ele>58</ele>
<time>2017-12-04T16:26:09Z</time>
</trkpt>
<trkpt lat="54.004" lon="15.9828">
<ele>58</ele>
<time>2017-12-04T16:26:15Z</time>
</trkpt>
<trkpt lat="54.0037882" lon="15.9825479">
<ele>58</ele>
<time>2017-12-04T16:26:21Z</time>
</trkpt>
<trkpt lat="54.0035490" lon="15.9821938">
<ele>58</ele>
<time>2017-12-04T16:26:27Z</time>
</trkpt>
<trkpt lat="54.0034242" lon="15.9817684">
<ele>56</ele>
<time>2017-12-04T16:26:33Z</time>
</trkpt>
<trkpt lat="54.0035151" lon="15.9811665">
<ele>56</ele>
<time>2017-12-04T16:26:39Z</time>
</trkpt>
<trkpt lat="54.0037136" lon="15.9805176">
<ele>56</ele>
<time>2017-12-04T16:26:45Z</time>
</trkpt>
<trkpt lat="54.0040724" lon="15.9799846">
<ele>57</ele>
<time>2017-12-04T16:26:51Z</time>
</trkpt>
<trkpt lat="54.0045547" lon="15.9794395">
<ele>56</ele>
<time>2017-12-04T16:26:57Z</time>
</trkpt>
<trkpt lat="54.0050613" lon="15.9788475">
<ele>55</ele>
<time>2017-12-04T16:27:03Z</time>
</trkpt>
<trkpt lat="54.0055618" lon="15.9783326">
<ele>55</ele>
<time>2017-12-04T16:27:09Z</time>
</trkpt>
<trkpt lat="54.0061015" lon="15.9783650">
<ele>56</ele>
<time>2017-12-04T16:27:15Z</time>
</trkpt>
<trkpt lat="54.0065518" lon="15.9786493">
<ele>57</ele>
<time>2017-12-04T16:27:21Z</time>
</trkpt>
<trkpt lat="54.0070402" lon="15.9787964">
<ele>55</ele>
<time>2017-12-04T16:27:27Z</time>
</trkpt>
<trkpt lat="54.0075270" lon="15.9788928">
<ele>57</ele>
<time>2017-12-04T16:27:33Z</time>
</trkpt>
<trkpt lat="54.0078606" lon="15.9789530">
<ele>59</ele>
<time>2017-12-04T16:27:39Z</time>
</trkpt>
<trkpt lat="54.0080269" lon="15.9789632">
<ele>58</ele>
<time>2017-12-04T16:27:45Z</time>
</trkpt>
<trkpt lat="54.0081165" lon="15.9786881">
<ele>60</ele>
<time>2017-12-04T16:27:51Z</time>
</trkpt>
<trkpt lat="54.0079872" lon="15.9784169">
<ele>59</ele>
<time>2017-12-04T16:27:57Z</time>
</trkpt>
<trkpt lat="54.0078485" lon="15.9784224">
<ele>59</ele>
<time>2017-12-04T16:28:03Z</time>
</trkpt>
<trkpt lat="54.0078196" lon="15.9785225">
<ele>59</ele>
<time>2017-12-04T16:28:09Z</time>
</trkpt>
<trkpt lat="54.0078235" lon="15.9784979">
<ele>59</ele>
<time>2017-12-04T16:28:15Z</time>
</trkpt>
<trkpt lat="54.0078288" lon="15.9784782">
<ele>59</ele>
<time>2017-12-04T16:28:21Z</time>
</trkpt>
<trkpt lat="54.0078561" lon="15.9785453">
<ele>59</ele>
<time>2017-12-04T16:28:27Z</time>
</trkpt>
<trkpt lat="54.0079100" lon="15.9785594">
<ele>61</ele>
<time>2017-12-04T16:28:33Z</time>
</trkpt>
<trkpt lat="54.0079100" lon="15.9785594">
<ele>61</ele>
<time>2017-12-04T16:28:39Z</time>
</trkpt>
<trkpt lat="54.0079100" lon="15.9785594">
<ele>61</ele>
<time>2017-12-04T16:28:45Z</time>
</trkpt>
<trkpt lat="54.0079100" lon="15.9785594">
<ele>61</ele>
<time>2017-12-04T16:28:51Z</time>
</trkpt>
<trkpt lat="54.0079100" lon="15.9785594">
<ele>61</ele>
<time>2017-12-04T16:28:57Z</time>
</trkpt>
<trkpt lat="54.0079100" lon="15.9785594">
<ele>61</ele>
<time>2017-12-04T16:29:03Z</time>
</trkpt>
<trkpt lat="54.0079100" lon="15.9785594">
<ele>61</ele>
<time>2017-12-04T16:29:09Z</time>
</trkpt>
<trkpt lat="54.0079100" lon="15.9785594">
<ele>61</ele>
<time>2017-12-04T16:29:15Z</time>
</trkpt>
<trkpt lat="54.0079100" lon="15.9785594">
<ele>61</ele>
<time>2017-12-04T16:29:21Z</time>
</trkpt>
<trkpt lat="54.0079100" lon="15.9785594">
<ele>61</ele>
<time>2017-12-04T16:29:27Z</time>
</trkpt>
<trkpt lat="54.0079100" lon="15.9785594">
<ele>61</ele>
<time>2017-12-04T16:29:33Z</time>
</trkpt>
<trkpt lat="54.0079100" lon="15.9785594">
<ele>61</ele>
<time>2017-12-04T16:29:39Z</time>
</trkpt>
<trkpt lat="54.0079100" lon="15.9785594">
<ele>61</ele>
<time>2017-12-04T16:29:45Z</time>
</trkpt>
<trkpt lat="54.0079100" lon="15.9785594">
<ele>61</ele>
<time>2017-12-04T16:29:51Z</time>
</trkpt>
<trkpt lat="54.0079100" lon="15.9785594">
<ele>61</ele>
<time>2017-12-04T16:29:57Z</time>
</trkpt>
<trkpt lat="54.0079100" lon="15.9785594">
<ele>61</ele>
<time>2017-12-04T16:30:03Z</time>
</trkpt>
<trkpt lat="54.0079100" lon="15.9785594">
<ele>61</ele>
<time>2017-12-04T16:30:09Z</time>
</trkpt>
<trkpt lat="54.0079100" lon="15.9785594">
<ele>61</ele>
<time>2017-12-04T16:30:15Z</time>
</trkpt>
<trkpt lat="54.0079100" lon="15.9785594">
<ele>61</ele>
<time>2017-12-04T16:30:21Z</time>
</trkpt>
<trkpt lat="54.0079100" lon="15.9785594">
<ele>61</ele>
<time>2017-12-04T16:30:27Z</time>
</trkpt>
<trkpt lat="54.0079100" lon="15.9785594">
<ele>61</ele>
<time>2017-12-04T16:30:33Z</time>
</trkpt>
<trkpt lat="54.0079100" lon="15.9785594">
<ele>61</ele>
<time>2017-12-04T16:30:39Z</time>
</trkpt>
<trkpt lat="54.0079100" lon="15.9785594">
<ele>61</ele>
<time>2017-12-04T16:30:45Z</time>
</trkpt>
<trkpt lat="54.0078683" lon="15.9784847">
<ele>61</ele>
<time>2017-12-04T16:30:51Z</time>
</trkpt>
<trkpt lat="54.0078538" lon="15.9784249">
<ele>61</ele>
<time>2017-12-04T16:30:57Z</time>
</trkpt>
<trkpt lat="54.0078392" lon="15.9783867">
<ele>61</ele>
<time>2017-12-04T16:31:03Z</time>
</trkpt>
<trkpt lat="54.0078156" lon="15.9783901">
<ele>60</ele>
<time>2017-12-04T16:31:09Z</time>
</trkpt>
<trkpt lat="54.0078162" lon="15.9783720">
<ele>60</ele>
<time>2017-12-04T16:31:15Z</time>
</trkpt>
<trkpt lat="54.0078162" lon="15.9783720">
<ele>60</ele>
<time>2017-12-04T16:31:21Z</time>
</trkpt>
<trkpt lat="54.0078162" lon="15.9783720">
<ele>60</ele>
<time>2017-12-04T16:31:27Z</time>
</trkpt>
<trkpt lat="54.0078162" lon="15.9783720">
<ele>60</ele>
<time>2017-12-04T16:31:33Z</time>
</trkpt>
<trkpt lat="54.0078162" lon="15.9783720">
<ele>60</ele>
<time>2017-12-04T16:31:39Z</time>
</trkpt>
<trkpt lat="54.0078162" lon="15.9783720">
<ele>60</ele>
<time>2017-12-04T16:31:45Z</time>
</trkpt>
<trkpt lat="54.0078162" lon="15.9783720">
<ele>60</ele>
<time>2017-12-04T16:31:51Z</time>
</trkpt>
<trkpt lat="54.0078162" lon="15.9783720">
<ele>60</ele>
<time>2017-12-04T16:31:57Z</time>
</trkpt>
<trkpt lat="54.0078162" lon="15.9783720">
<ele>60</ele>
<time>2017-12-04T16:32:03Z</time>
</trkpt>
<trkpt lat="54.0078162" lon="15.9783720">
<ele>60</ele>
<time>2017-12-04T16:32:09Z</time>
</trkpt>
<trkpt lat="54.0078162" lon="15.9783720">
<ele>60</ele>
<time>2017-12-04T16:32:15Z</time>
</trkpt>
<trkpt lat="54.0078204" lon="15.9783631">
<ele>60</ele>
<time>2017-12-04T16:32:27Z</time>
</trkpt>
<trkpt lat="54.0078359" lon="15.9782928">
<ele>59</ele>
<time>2017-12-04T16:32:33Z</time>
</trkpt>
<trkpt lat="54.0078358" lon="15.9782202">
<ele>58</ele>
<time>2017-12-04T16:32:39Z</time>
</trkpt>
<trkpt lat="54.0078189" lon="15.9781950">
<ele>59</ele>
<time>2017-12-04T16:32:45Z</time>
</trkpt>
<trkpt lat="54.0078189" lon="15.9781950">
<ele>59</ele>
<time>2017-12-04T16:32:51Z</time>
</trkpt>
<trkpt lat="54.0078107" lon="15.9781972">
<ele>58</ele>
<time>2017-12-04T16:32:57Z</time>
</trkpt>
<trkpt lat="54.0078102" lon="15.9781768">
<ele>58</ele>
<time>2017-12-04T16:33:03Z</time>
</trkpt>
<trkpt lat="54.0078102" lon="15.9781768">
<ele>58</ele>
<time>2017-12-04T16:33:09Z</time>
</trkpt>
<trkpt lat="54.0078102" lon="15.9781768">
<ele>58</ele>
<time>2017-12-04T16:33:15Z</time>
</trkpt>
<trkpt lat="54.0078102" lon="15.9781768">
<ele>58</ele>
<time>2017-12-04T16:33:21Z</time>
</trkpt>
<trkpt lat="54.0078102" lon="15.9781768">
<ele>58</ele>
<time>2017-12-04T16:33:27Z</time>
</trkpt>
<trkpt lat="54.0078124" lon="15.9781681">
<ele>58</ele>
<time>2017-12-04T16:33:33Z</time>
</trkpt>
<trkpt lat="54.0078109" lon="15.9781494">
<ele>58</ele>
<time>2017-12-04T16:33:39Z</time>
</trkpt>
<trkpt lat="54.0078109" lon="15.9781494">
<ele>58</ele>
<time>2017-12-04T16:33:45Z</time>
</trkpt>
<trkpt lat="54.0078109" lon="15.9781494">
<ele>58</ele>
<time>2017-12-04T16:33:51Z</time>
</trkpt>
<trkpt lat="54.0078224" lon="15.9781464">
<ele>57</ele>
<time>2017-12-04T16:33:57Z</time>
</trkpt>
<trkpt lat="54.0078274" lon="15.9781409">
<ele>57</ele>
<time>2017-12-04T16:34:03Z</time>
</trkpt>
<trkpt lat="54.0078161" lon="15.9781176">
<ele>57</ele>
<time>2017-12-04T16:34:09Z</time>
</trkpt>
<trkpt lat="54.0078025" lon="15.9781004">
<ele>58</ele>
<time>2017-12-04T16:34:15Z</time>
</trkpt>
<trkpt lat="54.0078084" lon="15.9780898">
<ele>60</ele>
<time>2017-12-04T16:34:21Z</time>
</trkpt>
<trkpt lat="54.0078084" lon="15.9780898">
<ele>60</ele>
<time>2017-12-04T16:34:27Z</time>
</trkpt>
<trkpt lat="54.0078084" lon="15.9780898">
<ele>60</ele>
<time>2017-12-04T16:34:33Z</time>
</trkpt>
<trkpt lat="54.0078084" lon="15.9780898">
<ele>60</ele>
<time>2017-12-04T16:34:39Z</time>
</trkpt>
<trkpt lat="54.0077901" lon="15.9780939">
<ele>60</ele>
<time>2017-12-04T16:34:45Z</time>
</trkpt>
<trkpt lat="54.0077832" lon="15.9780949">
<ele>60</ele>
<time>2017-12-04T16:34:51Z</time>
</trkpt>
<trkpt lat="54.0077832" lon="15.9780949">
<ele>60</ele>
<time>2017-12-04T16:34:57Z</time>
</trkpt>
<trkpt lat="54.0077832" lon="15.9780949">
<ele>60</ele>
<time>2017-12-04T16:35:03Z</time>
</trkpt>
<trkpt lat="54.0077832" lon="15.9780949">
<ele>60</ele>
<time>2017-12-04T16:35:09Z</time>
</trkpt>
<trkpt lat="54.0077832" lon="15.9780949">
<ele>60</ele>
<time>2017-12-04T16:35:15Z</time>
</trkpt>
<trkpt lat="54.0077832" lon="15.9780949">
<ele>60</ele>
<time>2017-12-04T16:35:21Z</time>
</trkpt>
<trkpt lat="54.0077962" lon="15.9780963">
<ele>60</ele>
<time>2017-12-04T16:35:27Z</time>
</trkpt>
<trkpt lat="54.0077962" lon="15.9780963">
<ele>60</ele>
<time>2017-12-04T16:35:33Z</time>
</trkpt>
<trkpt lat="54.0077962" lon="15.9780963">
<ele>60</ele>
<time>2017-12-04T16:35:39Z</time>
</trkpt>
<trkpt lat="54.0078075" lon="15.9780910">
<ele>59</ele>
<time>2017-12-04T16:35:45Z</time>
</trkpt>
<trkpt lat="54.0078103" lon="15.9780928">
<ele>59</ele>
<time>2017-12-04T16:35:51Z</time>
</trkpt>
<trkpt lat="54.0078103" lon="15.9780928">
<ele>59</ele>
<time>2017-12-04T16:35:57Z</time>
</trkpt>
<trkpt lat="54.0078103" lon="15.9780928">
<ele>59</ele>
<time>2017-12-04T16:36:03Z</time>
</trkpt>
<trkpt lat="54.0078103" lon="15.9780928">
<ele>59</ele>
<time>2017-12-04T16:36:09Z</time>
</trkpt>
<trkpt lat="54.0078103" lon="15.9780928">
<ele>59</ele>
<time>2017-12-04T16:36:15Z</time>
</trkpt>
<trkpt lat="54.0078103" lon="15.9780928">
<ele>59</ele>
<time>2017-12-04T16:36:21Z</time>
</trkpt>
<trkpt lat="54.0078357" lon="15.9780864">
<ele>58</ele>
<time>2017-12-04T16:36:27Z</time>
</trkpt>
<trkpt lat="54.0078360" lon="15.9780857">
<ele>58</ele>
<time>2017-12-04T16:36:33Z</time>
</trkpt>
<trkpt lat="54.0078259" lon="15.9780471">
<ele>57</ele>
<time>2017-12-04T16:36:39Z</time>
</trkpt>
<trkpt lat="54.0078259" lon="15.9780471">
<ele>57</ele>
<time>2017-12-04T16:36:45Z</time>
</trkpt>
<trkpt lat="54.0078259" lon="15.9780471">
<ele>57</ele>
<time>2017-12-04T16:36:51Z</time>
</trkpt>
<trkpt lat="54.0078259" lon="15.9780471">
<ele>57</ele>
<time>2017-12-04T16:36:57Z</time>
</trkpt>
<trkpt lat="54.0078169" lon="15.9780529">
<ele>58</ele>
<time>2017-12-04T16:37:03Z</time>
</trkpt>
<trkpt lat="54.0078146" lon="15.9780494">
<ele>58</ele>
<time>2017-12-04T16:37:09Z</time>
</trkpt>
<trkpt lat="54.0078128" lon="15.9780273">
<ele>58</ele>
<time>2017-12-04T16:37:15Z</time>
</trkpt>
<trkpt lat="54.0078128" lon="15.9780273">
<ele>58</ele>
<time>2017-12-04T16:37:21Z</time>
</trkpt>
<trkpt lat="54.0078128" lon="15.9780273">
<ele>58</ele>
<time>2017-12-04T16:37:27Z</time>
</trkpt>
<trkpt lat="54.0078128" lon="15.9780273">
<ele>58</ele>
<time>2017-12-04T16:37:33Z</time>
</trkpt>
<trkpt lat="54.0078436" lon="15.9780336">
<ele>60</ele>
<time>2017-12-04T16:37:39Z</time>
</trkpt>
<trkpt lat="54.0078350" lon="15.9779960">
<ele>61</ele>
<time>2017-12-04T16:37:45Z</time>
</trkpt>
<trkpt lat="54.0078350" lon="15.9779960">
<ele>61</ele>
<time>2017-12-04T16:37:51Z</time>
</trkpt>
<trkpt lat="54.0078350" lon="15.9779960">
<ele>61</ele>
<time>2017-12-04T16:37:57Z</time>
</trkpt>
<trkpt lat="54.0078350" lon="15.9779960">
<ele>61</ele>
<time>2017-12-04T16:38:03Z</time>
</trkpt>
<trkpt lat="54.0078627" lon="15.9780159">
<ele>61</ele>
<time>2017-12-04T16:38:09Z</time>
</trkpt>
<trkpt lat="54.0078704" lon="15.9780134">
<ele>60</ele>
<time>2017-12-04T16:38:15Z</time>
</trkpt>
<trkpt lat="54.0078909" lon="15.9780177">
<ele>59</ele>
<time>2017-12-04T16:38:21Z</time>
</trkpt>
<trkpt lat="54.0078909" lon="15.9780177">
<ele>59</ele>
<time>2017-12-04T16:38:27Z</time>
</trkpt>
<trkpt lat="54.0078635" lon="15.9780033">
<ele>60</ele>
<time>2017-12-04T16:38:33Z</time>
</trkpt>
<trkpt lat="54.0078635" lon="15.9780033">
<ele>60</ele>
<time>2017-12-04T16:38:39Z</time>
</trkpt>
<trkpt lat="54.0078635" lon="15.9780033">
<ele>60</ele>
<time>2017-12-04T16:38:45Z</time>
</trkpt>
<trkpt lat="54.0078806" lon="15.9779883">
<ele>63</ele>
<time>2017-12-04T16:38:51Z</time>
</trkpt>
<trkpt lat="54.0078837" lon="15.9779867">
<ele>62</ele>
<time>2017-12-04T16:38:57Z</time>
</trkpt>
<trkpt lat="54.0078782" lon="15.9779906">
<ele>63</ele>
<time>2017-12-04T16:39:03Z</time>
</trkpt>
<trkpt lat="54.0078782" lon="15.9779906">
<ele>63</ele>
<time>2017-12-04T16:39:09Z</time>
</trkpt>
<trkpt lat="54.0078782" lon="15.9779906">
<ele>63</ele>
<time>2017-12-04T16:39:15Z</time>
</trkpt>
<trkpt lat="54.0078782" lon="15.9779906">
<ele>63</ele>
<time>2017-12-04T16:39:21Z</time>
</trkpt>
<trkpt lat="54.0078758" lon="15.9779945">
<ele>62</ele>
<time>2017-12-04T16:39:27Z</time>
</trkpt>
<trkpt lat="54.0078758" lon="15.9779945">
<ele>62</ele>
<time>2017-12-04T16:39:33Z</time>
</trkpt>
<trkpt lat="54.0078758" lon="15.9779945">
<ele>62</ele>
<time>2017-12-04T16:39:39Z</time>
</trkpt>
<trkpt lat="54.0078758" lon="15.9779945">
<ele>62</ele>
<time>2017-12-04T16:39:45Z</time>
</trkpt>
<trkpt lat="54.0078623" lon="15.9780042">
<ele>62</ele>
<time>2017-12-04T16:39:51Z</time>
</trkpt>
<trkpt lat="54.0078623" lon="15.9780042">
<ele>62</ele>
<time>2017-12-04T16:39:57Z</time>
</trkpt>
<trkpt lat="54.0078641" lon="15.9780070">
<ele>61</ele>
<time>2017-12-04T16:40:03Z</time>
</trkpt>
<trkpt lat="54.0078716" lon="15.9780292">
<ele>60</ele>
<time>2017-12-04T16:40:09Z</time>
</trkpt>
<trkpt lat="54.0078663" lon="15.9780637">
<ele>59</ele>
<time>2017-12-04T16:40:15Z</time>
</trkpt>
<trkpt lat="54.0078663" lon="15.9780637">
<ele>59</ele>
<time>2017-12-04T16:40:21Z</time>
</trkpt>
<trkpt lat="54.0078663" lon="15.9780637">
<ele>59</ele>
<time>2017-12-04T16:40:27Z</time>
</trkpt>
<trkpt lat="54.0078672" lon="15.9781073">
<ele>58</ele>
<time>2017-12-04T16:40:33Z</time>
</trkpt>
<trkpt lat="54.0078672" lon="15.9781073">
<ele>58</ele>
<time>2017-12-04T16:40:39Z</time>
</trkpt>
<trkpt lat="54.0078466" lon="15.9782010">
<ele>55</ele>
<time>2017-12-04T16:40:45Z</time>
</trkpt>
<trkpt lat="54.0078345" lon="15.9783366">
<ele>60</ele>
<time>2017-12-04T16:40:51Z</time>
</trkpt>
<trkpt lat="54.0078442" lon="15.9784174">
<ele>62</ele>
<time>2017-12-04T16:40:57Z</time>
</trkpt>
<trkpt lat="54.0078585" lon="15.9784711">
<ele>62</ele>
<time>2017-12-04T16:41:03Z</time>
</trkpt>
<trkpt lat="54.0078585" lon="15.9784711">
<ele>62</ele>
<time>2017-12-04T16:41:09Z</time>
</trkpt>
<trkpt lat="54.0078585" lon="15.9784711">
<ele>62</ele>
<time>2017-12-04T16:41:15Z</time>
</trkpt>
<trkpt lat="54.0078585" lon="15.9784711">
<ele>62</ele>
<time>2017-12-04T16:41:21Z</time>
</trkpt>
<trkpt lat="54.0078585" lon="15.9784711">
<ele>62</ele>
<time>2017-12-04T16:41:27Z</time>
</trkpt>
<trkpt lat="54.0078585" lon="15.9784711">
<ele>62</ele>
<time>2017-12-04T16:41:33Z</time>
</trkpt>
<trkpt lat="54.0078585" lon="15.9784711">
<ele>62</ele>
<time>2017-12-04T16:41:39Z</time>
</trkpt>
<trkpt lat="54.0078585" lon="15.9784711">
<ele>62</ele>
<time>2017-12-04T16:41:45Z</time>
</trkpt>
<trkpt lat="54.0078473" lon="15.9784677">
<ele>62</ele>
<time>2017-12-04T16:41:51Z</time>
</trkpt>
<trkpt lat="54.0078664" lon="15.9784612">
<ele>61</ele>
<time>2017-12-04T16:41:57Z</time>
</trkpt>
<trkpt lat="54.0078664" lon="15.9784612">
<ele>61</ele>
<time>2017-12-04T16:42:03Z</time>
</trkpt>
<trkpt lat="54.0078664" lon="15.9784612">
<ele>61</ele>
<time>2017-12-04T16:42:09Z</time>
</trkpt>
<trkpt lat="54.0078664" lon="15.9784612">
<ele>61</ele>
<time>2017-12-04T16:42:15Z</time>
</trkpt>
<trkpt lat="54.0078664" lon="15.9784612">
<ele>61</ele>
<time>2017-12-04T16:42:21Z</time>
</trkpt>
<trkpt lat="54.0078664" lon="15.9784612">
<ele>61</ele>
<time>2017-12-04T16:42:27Z</time>
</trkpt>
<trkpt lat="54.0078664" lon="15.9784612">
<ele>61</ele>
<time>2017-12-04T16:42:33Z</time>
</trkpt>
<trkpt lat="54.0078664" lon="15.9784612">
<ele>61</ele>
<time>2017-12-04T16:42:39Z</time>
</trkpt>
<trkpt lat="54.0078664" lon="15.9784612">
<ele>61</ele>
<time>2017-12-04T16:42:45Z</time>
</trkpt>
<trkpt lat="54.0078664" lon="15.9784612">
<ele>61</ele>
<time>2017-12-04T16:42:51Z</time>
</trkpt>
<trkpt lat="54.0078664" lon="15.9784612">
<ele>61</ele>
<time>2017-12-04T16:42:57Z</time>
</trkpt>
<trkpt lat="54.0078664" lon="15.9784612">
<ele>61</ele>
<time>2017-12-04T16:43:03Z</time>
</trkpt>
<trkpt lat="54.0078664" lon="15.9784612">
<ele>61</ele>
<time>2017-12-04T16:43:09Z</time>
</trkpt>
<trkpt lat="54.0078664" lon="15.9784612">
<ele>61</ele>
<time>2017-12-04T16:43:15Z</time>
</trkpt>
<trkpt lat="54.0078664" lon="15.9784612">
<ele>61</ele>
<time>2017-12-04T16:43:21Z</time>
</trkpt>
<trkpt lat="54.0078664" lon="15.9784612">
<ele>61</ele>
<time>2017-12-04T16:43:27Z</time>
</trkpt>
<trkpt lat="54.0078664" lon="15.9784612">
<ele>61</ele>
<time>2017-12-04T16:43:33Z</time>
</trkpt>
<trkpt lat="54.0078664" lon="15.9784612">
<ele>61</ele>
<time>2017-12-04T16:43:39Z</time>
</trkpt>
<trkpt lat="54.0078664" lon="15.9784612">
<ele>61</ele>
<time>2017-12-04T16:43:45Z</time>
</trkpt>
<trkpt lat="54.0078664" lon="15.9784612">
<ele>61</ele>
<time>2017-12-04T16:43:51Z</time>
</trkpt>
<trkpt lat="54.0078664" lon="15.9784612">
<ele>61</ele>
<time>2017-12-04T16:43:57Z</time>
</trkpt>
<trkpt lat="54.0078664" lon="15.9784612">
<ele>61</ele>
<time>2017-12-04T16:44:03Z</time>
</trkpt>
<trkpt lat="54.0078664" lon="15.9784612">
<ele>61</ele>
<time>2017-12-04T16:44:09Z</time>
</trkpt>
<trkpt lat="54.0078664" lon="15.9784612">
<ele>61</ele>
<time>2017-12-04T16:44:15Z</time>
</trkpt>
<trkpt lat="54.0078664" lon="15.9784612">
<ele>61</ele>
<time>2017-12-04T16:44:21Z</time>
</trkpt>
<trkpt lat="54.0078664" lon="15.9784612">
<ele>61</ele>
<time>2017-12-04T16:44:27Z</time>
</trkpt>
<trkpt lat="54.0078664" lon="15.9784612">
<ele>61</ele>
<time>2017-12-04T16:44:33Z</time>
</trkpt>
<trkpt lat="54.0078664" lon="15.9784612">
<ele>61</ele>
<time>2017-12-04T16:44:39Z</time>
</trkpt>
<trkpt lat="54.0078664" lon="15.9784612">
<ele>61</ele>
<time>2017-12-04T16:44:45Z</time>
</trkpt>
<trkpt lat="54.0078664" lon="15.9784612">
<ele>61</ele>
<time>2017-12-04T16:44:51Z</time>
</trkpt>
<trkpt lat="54.0078664" lon="15.9784612">
<ele>61</ele>
<time>2017-12-04T16:44:57Z</time>
</trkpt>
<trkpt lat="54.0078664" lon="15.9784612">
<ele>61</ele>
<time>2017-12-04T16:45:03Z</time>
</trkpt>
<trkpt lat="54.0078664" lon="15.9784612">
<ele>61</ele>
<time>2017-12-04T16:45:09Z</time>
</trkpt>
<trkpt lat="54.0078840" lon="15.9783806">
<ele>61</ele>
<time>2017-12-04T16:45:15Z</time>
</trkpt>
<trkpt lat="54.0079653" lon="15.9783634">
<ele>62</ele>
<time>2017-12-04T16:45:21Z</time>
</trkpt>
<trkpt lat="54.0080922" lon="15.9785254">
<ele>62</ele>
<time>2017-12-04T16:45:27Z</time>
</trkpt>
<trkpt lat="54.0080914" lon="15.9786857">
<ele>61</ele>
<time>2017-12-04T16:45:33Z</time>
</trkpt>
<trkpt lat="54.0080928" lon="15.9786927">
<ele>61</ele>
<time>2017-12-04T16:45:39Z</time>
</trkpt>
<trkpt lat="54.0080955" lon="15.9787538">
<ele>61</ele>
<time>2017-12-04T16:45:45Z</time>
</trkpt>
<trkpt lat="54.0080951" lon="15.9787689">
<ele>62</ele>
<time>2017-12-04T16:45:51Z</time>
</trkpt>
<trkpt lat="54.0079703" lon="15.9788794">
<ele>61</ele>
<time>2017-12-04T16:45:57Z</time>
</trkpt>
<trkpt lat="54.0077138" lon="15.9788289">
<ele>60</ele>
<time>2017-12-04T16:46:03Z</time>
</trkpt>
<trkpt lat="54.0073653" lon="15.9787766">
<ele>61</ele>
<time>2017-12-04T16:46:09Z</time>
</trkpt>
<trkpt lat="54.0064930" lon="15.9785510">
<ele>61</ele>
<time>2017-12-04T16:46:21Z</time>
</trkpt>
<trkpt lat="54.0059373" lon="15.9782471">
<ele>60</ele>
<time>2017-12-04T16:46:27Z</time>
</trkpt>
<trkpt lat="54.0053851" lon="15.9785357">
<ele>60</ele>
<time>2017-12-04T16:46:33Z</time>
</trkpt>
<trkpt lat="54.0049167" lon="15.9790896">
<ele>60</ele>
<time>2017-12-04T16:46:39Z</time>
</trkpt>
<trkpt lat="54.0044174" lon="15.9796839">
<ele>59</ele>
<time>2017-12-04T16:46:45Z</time>
</trkpt>
<trkpt lat="54.0038962" lon="15.9803188">
<ele>58</ele>
<time>2017-12-04T16:46:51Z</time>
</trkpt>
<trkpt lat="54.0035023" lon="15.9810161">
<ele>60</ele>
<time>2017-12-04T16:46:57Z</time>
</trkpt>
<trkpt lat="54.0034174" lon="15.9817254">
<ele>62</ele>
<time>2017-12-04T16:47:03Z</time>
</trkpt>
<trkpt lat="54.0033658" lon="15.9819604">
<ele>61</ele>
<time>2017-12-04T16:47:09Z</time>
</trkpt>
<trkpt lat="54.0031487" lon="15.9818984">
<ele>61</ele>
<time>2017-12-04T16:47:15Z</time>
</trkpt>
<trkpt lat="54.0028543" lon="15.9815927">
<ele>62</ele>
<time>2017-12-04T16:47:21Z</time>
</trkpt>
<trkpt lat="54.0024817" lon="15.9812603">
<ele>61</ele>
<time>2017-12-04T16:47:27Z</time>
</trkpt>
<trkpt lat="54.0020622" lon="15.9809546">
<ele>59</ele>
<time>2017-12-04T16:47:33Z</time>
</trkpt>
<trkpt lat="54.0011706" lon="15.9801939">
<ele>58</ele>
<time>2017-12-04T16:47:45Z</time>
</trkpt>
<trkpt lat="54.0006402" lon="15.9798044">
<ele>57</ele>
<time>2017-12-04T16:47:51Z</time>
</trkpt>
<trkpt lat="54.0001384" lon="15.9795236">
<ele>59</ele>
<time>2017-12-04T16:47:57Z</time>
</trkpt>
<trkpt lat="53.9997686" lon="15.9792804">
<ele>60</ele>
<time>2017-12-04T16:48:03Z</time>
</trkpt>
<trkpt lat="53.9997448" lon="15.9788485">
<ele>58</ele>
<time>2017-12-04T16:48:09Z</time>
</trkpt>
<trkpt lat="53.9999336" lon="15.9783660">
<ele>60</ele>
<time>2017-12-04T16:48:15Z</time>
</trkpt>
<trkpt lat="54.0000806" lon="15.9778924">
<ele>59</ele>
<time>2017-12-04T16:48:21Z</time>
</trkpt>
<trkpt lat="54.0002359" lon="15.9774229">
<ele>59</ele>
<time>2017-12-04T16:48:27Z</time>
</trkpt>
<trkpt lat="54.0004152" lon="15.9769307">
<ele>60</ele>
<time>2017-12-04T16:48:33Z</time>
</trkpt>
<trkpt lat="54.0005518" lon="15.9764223">
<ele>60</ele>
<time>2017-12-04T16:48:39Z</time>
</trkpt>
<trkpt lat="54.0006274" lon="15.9759123">
<ele>59</ele>
<time>2017-12-04T16:48:45Z</time>
</trkpt>
<trkpt lat="54.0006266" lon="15.9752618">
<ele>58</ele>
<time>2017-12-04T16:48:51Z</time>
</trkpt>
<trkpt lat="54.0004887" lon="15.9745464">
<ele>58</ele>
<time>2017-12-04T16:48:57Z</time>
</trkpt>
<trkpt lat="54.0001479" lon="15.9739155">
<ele>58</ele>
<time>2017-12-04T16:49:03Z</time>
</trkpt>
<trkpt lat="53.9997869" lon="15.9732498">
<ele>58</ele>
<time>2017-12-04T16:49:09Z</time>
</trkpt>
<trkpt lat="53.9993677" lon="15.9724607">
<ele>57</ele>
<time>2017-12-04T16:49:15Z</time>
</trkpt>
<trkpt lat="53.9990203" lon="15.9714881">
<ele>57</ele>
<time>2017-12-04T16:49:21Z</time>
</trkpt>
<trkpt lat="53.9987368" lon="15.9705291">
<ele>56</ele>
<time>2017-12-04T16:49:27Z</time>
</trkpt>
<trkpt lat="53.9985451" lon="15.9698597">
<ele>57</ele>
<time>2017-12-04T16:49:33Z</time>
</trkpt>
<trkpt lat="53.9983559" lon="15.9691775">
<ele>60</ele>
<time>2017-12-04T16:49:39Z</time>
</trkpt>
<trkpt lat="53.9981247" lon="15.9685420">
<ele>60</ele>
<time>2017-12-04T16:49:45Z</time>
</trkpt>
<trkpt lat="53.9980404" lon="15.9683822">
<ele>60</ele>
<time>2017-12-04T16:49:51Z</time>
</trkpt>
<trkpt lat="53.9980196" lon="15.9683440">
<ele>60</ele>
<time>2017-12-04T16:49:57Z</time>
</trkpt>
<trkpt lat="53.9980196" lon="15.9683440">
<ele>60</ele>
<time>2017-12-04T16:50:03Z</time>
</trkpt>
<trkpt lat="53.9980196" lon="15.9683440">
<ele>60</ele>
<time>2017-12-04T16:50:09Z</time>
</trkpt>
<trkpt lat="53.9980196" lon="15.9683440">
<ele>60</ele>
<time>2017-12-04T16:50:15Z</time>
</trkpt>
<trkpt lat="53.9980196" lon="15.9683440">
<ele>60</ele>
<time>2017-12-04T16:50:21Z</time>
</trkpt>
<trkpt lat="53.9980196" lon="15.9683440">
<ele>60</ele>
<time>2017-12-04T16:50:27Z</time>
</trkpt>
<trkpt lat="53.9980196" lon="15.9683440">
<ele>60</ele>
<time>2017-12-04T16:50:33Z</time>
</trkpt>
<trkpt lat="53.9980196" lon="15.9683440">
<ele>60</ele>
<time>2017-12-04T16:50:39Z</time>
</trkpt>
<trkpt lat="53.9980196" lon="15.9683440">
<ele>60</ele>
<time>2017-12-04T16:50:45Z</time>
</trkpt>
<trkpt lat="53.9980196" lon="15.9683440">
<ele>60</ele>
<time>2017-12-04T16:50:51Z</time>
</trkpt>
<trkpt lat="53.9980196" lon="15.9683440">
<ele>60</ele>
<time>2017-12-04T16:50:57Z</time>
</trkpt>
<trkpt lat="53.9980196" lon="15.9683440">
<ele>60</ele>
<time>2017-12-04T16:51:03Z</time>
</trkpt>
<trkpt lat="53.9979204" lon="15.9681504">
<ele>61</ele>
<time>2017-12-04T16:51:09Z</time>
</trkpt>
<trkpt lat="53.9977179" lon="15.9675968">
<ele>61</ele>
<time>2017-12-04T16:51:15Z</time>
</trkpt>
<trkpt lat="53.9974503" lon="15.9668443">
<ele>62</ele>
<time>2017-12-04T16:51:21Z</time>
</trkpt>
<trkpt lat="53.9971078" lon="15.9659065">
<ele>61</ele>
<time>2017-12-04T16:51:27Z</time>
</trkpt>
<trkpt lat="53.9967466" lon="15.9648433">
<ele>61</ele>
<time>2017-12-04T16:51:33Z</time>
</trkpt>
<trkpt lat="53.9963578" lon="15.9636035">
<ele>60</ele>
<time>2017-12-04T16:51:39Z</time>
</trkpt>
<trkpt lat="53.9958832" lon="15.9622918">
<ele>59</ele>
<time>2017-12-04T16:51:45Z</time>
</trkpt>
<trkpt lat="53.9954030" lon="15.9609697">
<ele>60</ele>
<time>2017-12-04T16:51:51Z</time>
</trkpt>
<trkpt lat="53.9949458" lon="15.9597012">
<ele>59</ele>
<time>2017-12-04T16:51:57Z</time>
</trkpt>
<trkpt lat="53.9944949" lon="15.9583156">
<ele>59</ele>
<time>2017-12-04T16:52:03Z</time>
</trkpt>
<trkpt lat="53.9940550" lon="15.9569433">
<ele>60</ele>
<time>2017-12-04T16:52:09Z</time>
</trkpt>
<trkpt lat="53.9935890" lon="15.9556193">
<ele>60</ele>
<time>2017-12-04T16:52:15Z</time>
</trkpt>
<trkpt lat="53.9930524" lon="15.9543555">
<ele>60</ele>
<time>2017-12-04T16:52:21Z</time>
</trkpt>
<trkpt lat="53.9924544" lon="15.9531762">
<ele>57</ele>
<time>2017-12-04T16:52:27Z</time>
</trkpt>
<trkpt lat="53.9918492" lon="15.9519681">
<ele>61</ele>
<time>2017-12-04T16:52:33Z</time>
</trkpt>
<trkpt lat="53.9912640" lon="15.9507984">
<ele>60</ele>
<time>2017-12-04T16:52:39Z</time>
</trkpt>
<trkpt lat="53.9906610" lon="15.9496841">
<ele>61</ele>
<time>2017-12-04T16:52:45Z</time>
</trkpt>
<trkpt lat="53.9900807" lon="15.9485630">
<ele>63</ele>
<time>2017-12-04T16:52:51Z</time>
</trkpt>
<trkpt lat="53.9895456" lon="15.9473219">
<ele>60</ele>
<time>2017-12-04T16:52:57Z</time>
</trkpt>
<trkpt lat="53.9890927" lon="15.9459174">
<ele>60</ele>
<time>2017-12-04T16:53:03Z</time>
</trkpt>
<trkpt lat="53.9886440" lon="15.9445095">
<ele>60</ele>
<time>2017-12-04T16:53:09Z</time>
</trkpt>
<trkpt lat="53.9882116" lon="15.9431194">
<ele>59</ele>
<time>2017-12-04T16:53:15Z</time>
</trkpt>
<trkpt lat="53.9877984" lon="15.9417516">
<ele>59</ele>
<time>2017-12-04T16:53:21Z</time>
</trkpt>
<trkpt lat="53.9873914" lon="15.9403750">
<ele>59</ele>
<time>2017-12-04T16:53:27Z</time>
</trkpt>
<trkpt lat="53.9869618" lon="15.9389812">
<ele>58</ele>
<time>2017-12-04T16:53:33Z</time>
</trkpt>
<trkpt lat="53.9865176" lon="15.9375875">
<ele>58</ele>
<time>2017-12-04T16:53:39Z</time>
</trkpt>
<trkpt lat="53.9860853" lon="15.9361936">
<ele>58</ele>
<time>2017-12-04T16:53:45Z</time>
</trkpt>
<trkpt lat="53.9856841" lon="15.9348503">
<ele>58</ele>
<time>2017-12-04T16:53:51Z</time>
</trkpt>
<trkpt lat="53.9852933" lon="15.9335343">
<ele>57</ele>
<time>2017-12-04T16:53:57Z</time>
</trkpt>
<trkpt lat="53.9848924" lon="15.9322388">
<ele>57</ele>
<time>2017-12-04T16:54:03Z</time>
</trkpt>
<trkpt lat="53.9844337" lon="15.9310050">
<ele>57</ele>
<time>2017-12-04T16:54:09Z</time>
</trkpt>
<trkpt lat="53.9839359" lon="15.9298460">
<ele>58</ele>
<time>2017-12-04T16:54:15Z</time>
</trkpt>
<trkpt lat="53.9834484" lon="15.9287124">
<ele>58</ele>
<time>2017-12-04T16:54:21Z</time>
</trkpt>
<trkpt lat="53.9829743" lon="15.9276139">
<ele>59</ele>
<time>2017-12-04T16:54:27Z</time>
</trkpt>
<trkpt lat="53.9824844" lon="15.9264995">
<ele>59</ele>
<time>2017-12-04T16:54:33Z</time>
</trkpt>
<trkpt lat="53.9819757" lon="15.9253157">
<ele>58</ele>
<time>2017-12-04T16:54:39Z</time>
</trkpt>
<trkpt lat="53.9814652" lon="15.9240877">
<ele>58</ele>
<time>2017-12-04T16:54:45Z</time>
</trkpt>
<trkpt lat="53.9809443" lon="15.9228660">
<ele>57</ele>
<time>2017-12-04T16:54:51Z</time>
</trkpt>
<trkpt lat="53.9804476" lon="15.9216625">
<ele>57</ele>
<time>2017-12-04T16:54:57Z</time>
</trkpt>
<trkpt lat="53.9799147" lon="15.9204138">
<ele>57</ele>
<time>2017-12-04T16:55:03Z</time>
</trkpt>
<trkpt lat="53.9793788" lon="15.9191487">
<ele>57</ele>
<time>2017-12-04T16:55:09Z</time>
</trkpt>
<trkpt lat="53.9788069" lon="15.9178257">
<ele>57</ele>
<time>2017-12-04T16:55:15Z</time>
</trkpt>
<trkpt lat="53.9781408" lon="15.9166617">
<ele>57</ele>
<time>2017-12-04T16:55:21Z</time>
</trkpt>
<trkpt lat="53.9774930" lon="15.9155675">
<ele>58</ele>
<time>2017-12-04T16:55:27Z</time>
</trkpt>
<trkpt lat="53.9768638" lon="15.9145401">
<ele>59</ele>
<time>2017-12-04T16:55:33Z</time>
</trkpt>
<trkpt lat="53.9762555" lon="15.9135143">
<ele>59</ele>
<time>2017-12-04T16:55:39Z</time>
</trkpt>
<trkpt lat="53.9756343" lon="15.9124773">
<ele>58</ele>
<time>2017-12-04T16:55:45Z</time>
</trkpt>
<trkpt lat="53.9749970" lon="15.9114252">
<ele>58</ele>
<time>2017-12-04T16:55:51Z</time>
</trkpt>
<trkpt lat="53.9743271" lon="15.9104087">
<ele>58</ele>
<time>2017-12-04T16:55:57Z</time>
</trkpt>
<trkpt lat="53.9734829" lon="15.9096778">
<ele>60</ele>
<time>2017-12-04T16:56:03Z</time>
</trkpt>
<trkpt lat="53.9725587" lon="15.9091015">
<ele>65</ele>
<time>2017-12-04T16:56:09Z</time>
</trkpt>
<trkpt lat="53.9717419" lon="15.9085583">
<ele>67</ele>
<time>2017-12-04T16:56:15Z</time>
</trkpt>
<trkpt lat="53.9709933" lon="15.9080673">
<ele>68</ele>
<time>2017-12-04T16:56:21Z</time>
</trkpt>
<trkpt lat="53.9701889" lon="15.9075682">
<ele>69</ele>
<time>2017-12-04T16:56:27Z</time>
</trkpt>
<trkpt lat="53.9693407" lon="15.9070130">
<ele>69</ele>
<time>2017-12-04T16:56:33Z</time>
</trkpt>
<trkpt lat="53.9684725" lon="15.9064502">
<ele>71</ele>
<time>2017-12-04T16:56:39Z</time>
</trkpt>
<trkpt lat="53.9676705" lon="15.9056824">
<ele>73</ele>
<time>2017-12-04T16:56:45Z</time>
</trkpt>
<trkpt lat="53.9669131" lon="15.9047764">
<ele>75</ele>
<time>2017-12-04T16:56:51Z</time>
</trkpt>
<trkpt lat="53.9661418" lon="15.9039410">
<ele>77</ele>
<time>2017-12-04T16:56:57Z</time>
</trkpt>
<trkpt lat="53.9653913" lon="15.9031246">
<ele>79</ele>
<time>2017-12-04T16:57:03Z</time>
</trkpt>
<trkpt lat="53.9646389" lon="15.9022897">
<ele>82</ele>
<time>2017-12-04T16:57:09Z</time>
</trkpt>
<trkpt lat="53.9639062" lon="15.9015526">
<ele>85</ele>
<time>2017-12-04T16:57:15Z</time>
</trkpt>
<trkpt lat="53.9631840" lon="15.9010103">
<ele>87</ele>
<time>2017-12-04T16:57:21Z</time>
</trkpt>
<trkpt lat="53.9624318" lon="15.9006409">
<ele>87</ele>
<time>2017-12-04T16:57:27Z</time>
</trkpt>
<trkpt lat="53.9616357" lon="15.9004729">
<ele>87</ele>
<time>2017-12-04T16:57:33Z</time>
</trkpt>
<trkpt lat="53.9608671" lon="15.9003962">
<ele>87</ele>
<time>2017-12-04T16:57:39Z</time>
</trkpt>
<trkpt lat="53.9601372" lon="15.9003208">
<ele>86</ele>
<time>2017-12-04T16:57:45Z</time>
</trkpt>
<trkpt lat="53.9594559" lon="15.9002392">
<ele>84</ele>
<time>2017-12-04T16:57:51Z</time>
</trkpt>
<trkpt lat="53.9588061" lon="15.9000900">
<ele>83</ele>
<time>2017-12-04T16:57:57Z</time>
</trkpt>
<trkpt lat="53.9582579" lon="15.8996338">
<ele>83</ele>
<time>2017-12-04T16:58:03Z</time>
</trkpt>
<trkpt lat="53.9580717" lon="15.8987213">
<ele>83</ele>
<time>2017-12-04T16:58:09Z</time>
</trkpt>
<trkpt lat="53.9580305" lon="15.8976450">
<ele>82</ele>
<time>2017-12-04T16:58:15Z</time>
</trkpt>
<trkpt lat="53.9579991" lon="15.8965104">
<ele>80</ele>
<time>2017-12-04T16:58:21Z</time>
</trkpt>
<trkpt lat="53.9579332" lon="15.8953334">
<ele>80</ele>
<time>2017-12-04T16:58:27Z</time>
</trkpt>
<trkpt lat="53.9578682" lon="15.8941287">
<ele>80</ele>
<time>2017-12-04T16:58:33Z</time>
</trkpt>
<trkpt lat="53.9578006" lon="15.8928633">
<ele>81</ele>
<time>2017-12-04T16:58:39Z</time>
</trkpt>
<trkpt lat="53.9577449" lon="15.8915322">
<ele>81</ele>
<time>2017-12-04T16:58:45Z</time>
</trkpt>
<trkpt lat="53.9576076" lon="15.8901666">
<ele>79</ele>
<time>2017-12-04T16:58:51Z</time>
</trkpt>
<trkpt lat="53.9573208" lon="15.8887774">
<ele>79</ele>
<time>2017-12-04T16:58:57Z</time>
</trkpt>
<trkpt lat="53.9570328" lon="15.8873384">
<ele>79</ele>
<time>2017-12-04T16:59:03Z</time>
</trkpt>
<trkpt lat="53.9567376" lon="15.8859019">
<ele>79</ele>
<time>2017-12-04T16:59:09Z</time>
</trkpt>
<trkpt lat="53.9564290" lon="15.8844412">
<ele>79</ele>
<time>2017-12-04T16:59:15Z</time>
</trkpt>
<trkpt lat="53.9561243" lon="15.8829990">
<ele>78</ele>
<time>2017-12-04T16:59:21Z</time>
</trkpt>
<trkpt lat="53.9558266" lon="15.8815103">
<ele>79</ele>
<time>2017-12-04T16:59:27Z</time>
</trkpt>
<trkpt lat="53.9555116" lon="15.8799821">
<ele>80</ele>
<time>2017-12-04T16:59:33Z</time>
</trkpt>
<trkpt lat="53.9551949" lon="15.8784112">
<ele>80</ele>
<time>2017-12-04T16:59:39Z</time>
</trkpt>
<trkpt lat="53.9549071" lon="15.8769223">
<ele>82</ele>
<time>2017-12-04T16:59:45Z</time>
</trkpt>
<trkpt lat="53.9546034" lon="15.8754460">
<ele>83</ele>
<time>2017-12-04T16:59:51Z</time>
</trkpt>
<trkpt lat="53.9543074" lon="15.8739367">
<ele>85</ele>
<time>2017-12-04T16:59:57Z</time>
</trkpt>
<trkpt lat="53.9540104" lon="15.8724420">
<ele>83</ele>
<time>2017-12-04T17:00:03Z</time>
</trkpt>
<trkpt lat="53.9536807" lon="15.8708934">
<ele>81</ele>
<time>2017-12-04T17:00:09Z</time>
</trkpt>
<trkpt lat="53.9532848" lon="15.8693062">
<ele>77</ele>
<time>2017-12-04T17:00:15Z</time>
</trkpt>
<trkpt lat="53.9526426" lon="15.8679370">
<ele>76</ele>
<time>2017-12-04T17:00:21Z</time>
</trkpt>
<trkpt lat="53.9520154" lon="15.8666243">
<ele>75</ele>
<time>2017-12-04T17:00:27Z</time>
</trkpt>
<trkpt lat="53.9513956" lon="15.8653378">
<ele>75</ele>
<time>2017-12-04T17:00:33Z</time>
</trkpt>
<trkpt lat="53.9507852" lon="15.8640560">
<ele>75</ele>
<time>2017-12-04T17:00:39Z</time>
</trkpt>
<trkpt lat="53.9502119" lon="15.8628563">
<ele>75</ele>
<time>2017-12-04T17:00:45Z</time>
</trkpt>
<trkpt lat="53.9486258" lon="15.8596527">
<ele>73</ele>
<time>2017-12-04T17:01:03Z</time>
</trkpt>
<trkpt lat="53.9475442" lon="15.8574144">
<ele>76</ele>
<time>2017-12-04T17:01:15Z</time>
</trkpt>
<trkpt lat="53.9469914" lon="15.8562535">
<ele>76</ele>
<time>2017-12-04T17:01:21Z</time>
</trkpt>
<trkpt lat="53.9464474" lon="15.8551056">
<ele>79</ele>
<time>2017-12-04T17:01:27Z</time>
</trkpt>
<trkpt lat="53.9459003" lon="15.8540038">
<ele>80</ele>
<time>2017-12-04T17:01:33Z</time>
</trkpt>
<trkpt lat="53.9443" lon="15.8507">
<ele>85</ele>
<time>2017-12-04T17:01:51Z</time>
</trkpt>
<trkpt lat="53.9438" lon="15.8496">
<ele>84</ele>
<time>2017-12-04T17:01:57Z</time>
</trkpt>
<trkpt lat="53.9433" lon="15.8486">
<ele>83</ele>
<time>2017-12-04T17:02:03Z</time>
</trkpt>
<trkpt lat="53.9427" lon="15.8473">
<ele>83</ele>
<time>2017-12-04T17:02:09Z</time>
</trkpt>
<trkpt lat="53.9421" lon="15.846">
<ele>85</ele>
<time>2017-12-04T17:02:15Z</time>
</trkpt>
<trkpt lat="53.9417" lon="15.8446">
<ele>88</ele>
<time>2017-12-04T17:02:21Z</time>
</trkpt>
<trkpt lat="53.9412949" lon="15.8433150">
<ele>89</ele>
<time>2017-12-04T17:02:27Z</time>
</trkpt>
<trkpt lat="53.9403644" lon="15.8406017">
<ele>93</ele>
<time>2017-12-04T17:02:39Z</time>
</trkpt>
<trkpt lat="53.9398816" lon="15.8392740">
<ele>94</ele>
<time>2017-12-04T17:02:45Z</time>
</trkpt>
<trkpt lat="53.9394149" lon="15.8379625">
<ele>97</ele>
<time>2017-12-04T17:02:51Z</time>
</trkpt>
<trkpt lat="53.9389847" lon="15.8367494">
<ele>99</ele>
<time>2017-12-04T17:02:57Z</time>
</trkpt>
<trkpt lat="53.9385654" lon="15.8356154">
<ele>100</ele>
<time>2017-12-04T17:03:03Z</time>
</trkpt>
<trkpt lat="53.9381292" lon="15.8344330">
<ele>100</ele>
<time>2017-12-04T17:03:09Z</time>
</trkpt>
<trkpt lat="53.9376695" lon="15.8331751">
<ele>100</ele>
<time>2017-12-04T17:03:15Z</time>
</trkpt>
<trkpt lat="53.9371983" lon="15.8318839">
<ele>100</ele>
<time>2017-12-04T17:03:21Z</time>
</trkpt>
<trkpt lat="53.9367515" lon="15.8306446">
<ele>100</ele>
<time>2017-12-04T17:03:27Z</time>
</trkpt>
<trkpt lat="53.9363055" lon="15.8294434">
<ele>99</ele>
<time>2017-12-04T17:03:33Z</time>
</trkpt>
<trkpt lat="53.9358302" lon="15.8282816">
<ele>98</ele>
<time>2017-12-04T17:03:39Z</time>
</trkpt>
<trkpt lat="53.9351649" lon="15.8277386">
<ele>98</ele>
<time>2017-12-04T17:03:45Z</time>
</trkpt>
<trkpt lat="53.9345821" lon="15.8274280">
<ele>98</ele>
<time>2017-12-04T17:03:51Z</time>
</trkpt>
<trkpt lat="53.9344295" lon="15.8268659">
<ele>97</ele>
<time>2017-12-04T17:03:57Z</time>
</trkpt>
<trkpt lat="53.9346696" lon="15.8260531">
<ele>92</ele>
<time>2017-12-04T17:04:03Z</time>
</trkpt>
<trkpt lat="53.9349020" lon="15.8251982">
<ele>89</ele>
<time>2017-12-04T17:04:09Z</time>
</trkpt>
<trkpt lat="53.9351389" lon="15.8242123">
<ele>88</ele>
<time>2017-12-04T17:04:15Z</time>
</trkpt>
<trkpt lat="53.9353716" lon="15.8231881">
<ele>86</ele>
<time>2017-12-04T17:04:21Z</time>
</trkpt>
<trkpt lat="53.9354340" lon="15.8220236">
<ele>86</ele>
<time>2017-12-04T17:04:27Z</time>
</trkpt>
<trkpt lat="53.9352107" lon="15.8209198">
<ele>87</ele>
<time>2017-12-04T17:04:33Z</time>
</trkpt>
<trkpt lat="53.9346861" lon="15.8200039">
<ele>87</ele>
<time>2017-12-04T17:04:39Z</time>
</trkpt>
<trkpt lat="53.9341510" lon="15.8190202">
<ele>87</ele>
<time>2017-12-04T17:04:45Z</time>
</trkpt>
<trkpt lat="53.9335804" lon="15.8179295">
<ele>88</ele>
<time>2017-12-04T17:04:51Z</time>
</trkpt>
<trkpt lat="53.9329959" lon="15.8167904">
<ele>87</ele>
<time>2017-12-04T17:04:57Z</time>
</trkpt>
<trkpt lat="53.9323806" lon="15.8156062">
<ele>85</ele>
<time>2017-12-04T17:05:03Z</time>
</trkpt>
<trkpt lat="53.9316846" lon="15.8143930">
<ele>84</ele>
<time>2017-12-04T17:05:09Z</time>
</trkpt>
<trkpt lat="53.9309476" lon="15.8132470">
<ele>84</ele>
<time>2017-12-04T17:05:15Z</time>
</trkpt>
<trkpt lat="53.9302315" lon="15.8121245">
<ele>84</ele>
<time>2017-12-04T17:05:21Z</time>
</trkpt>
<trkpt lat="53.9295264" lon="15.8109768">
<ele>85</ele>
<time>2017-12-04T17:05:27Z</time>
</trkpt>
<trkpt lat="53.9288205" lon="15.8098753">
<ele>87</ele>
<time>2017-12-04T17:05:33Z</time>
</trkpt>
<trkpt lat="53.9281750" lon="15.8087328">
<ele>89</ele>
<time>2017-12-04T17:05:39Z</time>
</trkpt>
<trkpt lat="53.9276673" lon="15.8075951">
<ele>91</ele>
<time>2017-12-04T17:05:45Z</time>
</trkpt>
<trkpt lat="53.9272087" lon="15.8065421">
<ele>92</ele>
<time>2017-12-04T17:05:51Z</time>
</trkpt>
<trkpt lat="53.9267144" lon="15.8054783">
<ele>92</ele>
<time>2017-12-04T17:05:57Z</time>
</trkpt>
<trkpt lat="53.9261984" lon="15.8043544">
<ele>93</ele>
<time>2017-12-04T17:06:03Z</time>
</trkpt>
<trkpt lat="53.9256786" lon="15.8032188">
<ele>93</ele>
<time>2017-12-04T17:06:09Z</time>
</trkpt>
<trkpt lat="53.9251492" lon="15.8020110">
<ele>93</ele>
<time>2017-12-04T17:06:15Z</time>
</trkpt>
<trkpt lat="53.9246013" lon="15.8008047">
<ele>94</ele>
<time>2017-12-04T17:06:21Z</time>
</trkpt>
<trkpt lat="53.9240510" lon="15.7995602">
<ele>93</ele>
<time>2017-12-04T17:06:27Z</time>
</trkpt>
<trkpt lat="53.9234574" lon="15.7982884">
<ele>92</ele>
<time>2017-12-04T17:06:33Z</time>
</trkpt>
<trkpt lat="53.9228728" lon="15.7970604">
<ele>90</ele>
<time>2017-12-04T17:06:39Z</time>
</trkpt>
<trkpt lat="53.9223193" lon="15.7958204">
<ele>88</ele>
<time>2017-12-04T17:06:45Z</time>
</trkpt>
<trkpt lat="53.9217528" lon="15.7945713">
<ele>85</ele>
<time>2017-12-04T17:06:51Z</time>
</trkpt>
<trkpt lat="53.9211225" lon="15.7933409">
<ele>82</ele>
<time>2017-12-04T17:06:57Z</time>
</trkpt>
<trkpt lat="53.9204337" lon="15.7921574">
<ele>77</ele>
<time>2017-12-04T17:07:03Z</time>
</trkpt>
<trkpt lat="53.9197485" lon="15.7909255">
<ele>75</ele>
<time>2017-12-04T17:07:09Z</time>
</trkpt>
<trkpt lat="53.9190709" lon="15.7896807">
<ele>73</ele>
<time>2017-12-04T17:07:15Z</time>
</trkpt>
<trkpt lat="53.9183956" lon="15.7884565">
<ele>72</ele>
<time>2017-12-04T17:07:21Z</time>
</trkpt>
<trkpt lat="53.9177420" lon="15.7872930">
<ele>74</ele>
<time>2017-12-04T17:07:27Z</time>
</trkpt>
<trkpt lat="53.9171649" lon="15.7862125">
<ele>74</ele>
<time>2017-12-04T17:07:33Z</time>
</trkpt>
<trkpt lat="53.9166289" lon="15.7851092">
<ele>74</ele>
<time>2017-12-04T17:07:39Z</time>
</trkpt>
<trkpt lat="53.9160719" lon="15.7840075">
<ele>75</ele>
<time>2017-12-04T17:07:45Z</time>
</trkpt>
<trkpt lat="53.9155188" lon="15.7828784">
<ele>74</ele>
<time>2017-12-04T17:07:51Z</time>
</trkpt>
<trkpt lat="53.9149968" lon="15.7817141">
<ele>78</ele>
<time>2017-12-04T17:07:57Z</time>
</trkpt>
<trkpt lat="53.9144828" lon="15.7805894">
<ele>83</ele>
<time>2017-12-04T17:08:03Z</time>
</trkpt>
<trkpt lat="53.9139645" lon="15.7794372">
<ele>87</ele>
<time>2017-12-04T17:08:09Z</time>
</trkpt>
<trkpt lat="53.9134094" lon="15.7782859">
<ele>88</ele>
<time>2017-12-04T17:08:15Z</time>
</trkpt>
<trkpt lat="53.9128209" lon="15.7770699">
<ele>89</ele>
<time>2017-12-04T17:08:21Z</time>
</trkpt>
<trkpt lat="53.9122357" lon="15.7758119">
<ele>93</ele>
<time>2017-12-04T17:08:27Z</time>
</trkpt>
<trkpt lat="53.9116903" lon="15.7746835">
<ele>98</ele>
<time>2017-12-04T17:08:33Z</time>
</trkpt>
<trkpt lat="53.9111826" lon="15.7737891">
<ele>101</ele>
<time>2017-12-04T17:08:39Z</time>
</trkpt>
<trkpt lat="53.9105595" lon="15.7733514">
<ele>102</ele>
<time>2017-12-04T17:08:45Z</time>
</trkpt>
<trkpt lat="53.9099285" lon="15.7731295">
<ele>103</ele>
<time>2017-12-04T17:08:51Z</time>
</trkpt>
<trkpt lat="53.9093680" lon="15.7728155">
<ele>102</ele>
<time>2017-12-04T17:08:57Z</time>
</trkpt>
<trkpt lat="53.9090212" lon="15.7719905">
<ele>100</ele>
<time>2017-12-04T17:09:03Z</time>
</trkpt>
<trkpt lat="53.9088903" lon="15.7709650">
<ele>97</ele>
<time>2017-12-04T17:09:09Z</time>
</trkpt>
<trkpt lat="53.9087357" lon="15.7699674">
<ele>96</ele>
<time>2017-12-04T17:09:15Z</time>
</trkpt>
<trkpt lat="53.9085553" lon="15.7689504">
<ele>94</ele>
<time>2017-12-04T17:09:21Z</time>
</trkpt>
<trkpt lat="53.9083752" lon="15.7678539">
<ele>91</ele>
<time>2017-12-04T17:09:27Z</time>
</trkpt>
<trkpt lat="53.9081685" lon="15.7667373">
<ele>90</ele>
<time>2017-12-04T17:09:33Z</time>
</trkpt>
<trkpt lat="53.9079505" lon="15.7656296">
<ele>91</ele>
<time>2017-12-04T17:09:39Z</time>
</trkpt>
<trkpt lat="53.9077554" lon="15.7645473">
<ele>94</ele>
<time>2017-12-04T17:09:45Z</time>
</trkpt>
<trkpt lat="53.9076782" lon="15.7634307">
<ele>94</ele>
<time>2017-12-04T17:09:51Z</time>
</trkpt>
<trkpt lat="53.9076991" lon="15.7622932">
<ele>95</ele>
<time>2017-12-04T17:09:57Z</time>
</trkpt>
<trkpt lat="53.9079284" lon="15.7610692">
<ele>95</ele>
<time>2017-12-04T17:10:03Z</time>
</trkpt>
<trkpt lat="53.9082112" lon="15.7597145">
<ele>95</ele>
<time>2017-12-04T17:10:09Z</time>
</trkpt>
<trkpt lat="53.9084403" lon="15.7583627">
<ele>94</ele>
<time>2017-12-04T17:10:15Z</time>
</trkpt>
<trkpt lat="53.9083742" lon="15.7569562">
<ele>95</ele>
<time>2017-12-04T17:10:21Z</time>
</trkpt>
<trkpt lat="53.9082962" lon="15.7555031">
<ele>92</ele>
<time>2017-12-04T17:10:27Z</time>
</trkpt>
<trkpt lat="53.9082138" lon="15.7540286">
<ele>93</ele>
<time>2017-12-04T17:10:33Z</time>
</trkpt>
<trkpt lat="53.9081353" lon="15.7525545">
<ele>93</ele>
<time>2017-12-04T17:10:39Z</time>
</trkpt>
<trkpt lat="53.9079729" lon="15.7510663">
<ele>92</ele>
<time>2017-12-04T17:10:45Z</time>
</trkpt>
<trkpt lat="53.9076251" lon="15.7496870">
<ele>93</ele>
<time>2017-12-04T17:10:51Z</time>
</trkpt>
<trkpt lat="53.9072305" lon="15.7483975">
<ele>94</ele>
<time>2017-12-04T17:10:57Z</time>
</trkpt>
<trkpt lat="53.9067641" lon="15.7471585">
<ele>95</ele>
<time>2017-12-04T17:11:03Z</time>
</trkpt>
<trkpt lat="53.9061766" lon="15.7459899">
<ele>95</ele>
<time>2017-12-04T17:11:09Z</time>
</trkpt>
<trkpt lat="53.9055275" lon="15.7449291">
<ele>94</ele>
<time>2017-12-04T17:11:15Z</time>
</trkpt>
<trkpt lat="53.9048702" lon="15.7438517">
<ele>93</ele>
<time>2017-12-04T17:11:21Z</time>
</trkpt>
<trkpt lat="53.9042146" lon="15.7427712">
<ele>90</ele>
<time>2017-12-04T17:11:27Z</time>
</trkpt>
<trkpt lat="53.9035604" lon="15.7417070">
<ele>87</ele>
<time>2017-12-04T17:11:33Z</time>
</trkpt>
<trkpt lat="53.9029194" lon="15.7405973">
<ele>85</ele>
<time>2017-12-04T17:11:39Z</time>
</trkpt>
<trkpt lat="53.9023192" lon="15.7393052">
<ele>84</ele>
<time>2017-12-04T17:11:45Z</time>
</trkpt>
<trkpt lat="53.9017178" lon="15.7378811">
<ele>85</ele>
<time>2017-12-04T17:11:51Z</time>
</trkpt>
<trkpt lat="53.9010989" lon="15.7363995">
<ele>85</ele>
<time>2017-12-04T17:11:57Z</time>
</trkpt>
<trkpt lat="53.9004880" lon="15.7348977">
<ele>85</ele>
<time>2017-12-04T17:12:03Z</time>
</trkpt>
<trkpt lat="53.8999209" lon="15.7333941">
<ele>86</ele>
<time>2017-12-04T17:12:09Z</time>
</trkpt>
<trkpt lat="53.8993625" lon="15.7319277">
<ele>87</ele>
<time>2017-12-04T17:12:15Z</time>
</trkpt>
<trkpt lat="53.8988182" lon="15.7305124">
<ele>89</ele>
<time>2017-12-04T17:12:21Z</time>
</trkpt>
<trkpt lat="53.8983023" lon="15.7291206">
<ele>89</ele>
<time>2017-12-04T17:12:27Z</time>
</trkpt>
<trkpt lat="53.8978172" lon="15.7278121">
<ele>89</ele>
<time>2017-12-04T17:12:33Z</time>
</trkpt>
<trkpt lat="53.8973710" lon="15.7265875">
<ele>89</ele>
<time>2017-12-04T17:12:39Z</time>
</trkpt>
<trkpt lat="53.8969363" lon="15.7254105">
<ele>88</ele>
<time>2017-12-04T17:12:45Z</time>
</trkpt>
<trkpt lat="53.8964734" lon="15.7242026">
<ele>89</ele>
<time>2017-12-04T17:12:51Z</time>
</trkpt>
<trkpt lat="53.8960222" lon="15.7229678">
<ele>89</ele>
<time>2017-12-04T17:12:57Z</time>
</trkpt>
<trkpt lat="53.8955600" lon="15.7217595">
<ele>90</ele>
<time>2017-12-04T17:13:03Z</time>
</trkpt>
<trkpt lat="53.8951031" lon="15.7205536">
<ele>89</ele>
<time>2017-12-04T17:13:09Z</time>
</trkpt>
<trkpt lat="53.8942001" lon="15.7181885">
<ele>89</ele>
<time>2017-12-04T17:13:21Z</time>
</trkpt>
<trkpt lat="53.8938126" lon="15.7171282">
<ele>89</ele>
<time>2017-12-04T17:13:27Z</time>
</trkpt>
<trkpt lat="53.8934478" lon="15.7161530">
<ele>87</ele>
<time>2017-12-04T17:13:33Z</time>
</trkpt>
<trkpt lat="53.8931101" lon="15.7152610">
<ele>87</ele>
<time>2017-12-04T17:13:39Z</time>
</trkpt>
<trkpt lat="53.8927883" lon="15.7144667">
<ele>87</ele>
<time>2017-12-04T17:13:45Z</time>
</trkpt>
<trkpt lat="53.8925019" lon="15.7137614">
<ele>87</ele>
<time>2017-12-04T17:13:51Z</time>
</trkpt>
<trkpt lat="53.8922300" lon="15.7131057">
<ele>87</ele>
<time>2017-12-04T17:13:57Z</time>
</trkpt>
<trkpt lat="53.8920111" lon="15.7125060">
<ele>88</ele>
<time>2017-12-04T17:14:03Z</time>
</trkpt>
<trkpt lat="53.8918643" lon="15.7120923">
<ele>87</ele>
<time>2017-12-04T17:14:09Z</time>
</trkpt>
<trkpt lat="53.8917691" lon="15.7118710">
<ele>88</ele>
<time>2017-12-04T17:14:15Z</time>
</trkpt>
<trkpt lat="53.8916829" lon="15.7115684">
<ele>87</ele>
<time>2017-12-04T17:14:21Z</time>
</trkpt>
<trkpt lat="53.8914502" lon="15.7110764">
<ele>89</ele>
<time>2017-12-04T17:14:27Z</time>
</trkpt>
<trkpt lat="53.8911658" lon="15.7104539">
<ele>88</ele>
<time>2017-12-04T17:14:33Z</time>
</trkpt>
<trkpt lat="53.8908269" lon="15.7097853">
<ele>89</ele>
<time>2017-12-04T17:14:39Z</time>
</trkpt>
<trkpt lat="53.8904528" lon="15.7090846">
<ele>89</ele>
<time>2017-12-04T17:14:45Z</time>
</trkpt>
<trkpt lat="53.8901798" lon="15.7082697">
<ele>88</ele>
<time>2017-12-04T17:14:51Z</time>
</trkpt>
<trkpt lat="53.8901032" lon="15.7073115">
<ele>90</ele>
<time>2017-12-04T17:14:57Z</time>
</trkpt>
<trkpt lat="53.8901755" lon="15.7064901">
<ele>91</ele>
<time>2017-12-04T17:15:03Z</time>
</trkpt>
<trkpt lat="53.8901599" lon="15.7057230">
<ele>92</ele>
<time>2017-12-04T17:15:09Z</time>
</trkpt>
<trkpt lat="53.8900943" lon="15.7053156">
<ele>91</ele>
<time>2017-12-04T17:15:15Z</time>
</trkpt>
<trkpt lat="53.8898666" lon="15.7053658">
<ele>87</ele>
<time>2017-12-04T17:15:21Z</time>
</trkpt>
<trkpt lat="53.8895093" lon="15.7055826">
<ele>86</ele>
<time>2017-12-04T17:15:27Z</time>
</trkpt>
<trkpt lat="53.8891609" lon="15.7058090">
<ele>87</ele>
<time>2017-12-04T17:15:33Z</time>
</trkpt>
<trkpt lat="53.8887970" lon="15.7062341">
<ele>90</ele>
<time>2017-12-04T17:15:39Z</time>
</trkpt>
<trkpt lat="53.8881417" lon="15.7072264">
<ele>85</ele>
<time>2017-12-04T17:15:51Z</time>
</trkpt>
<trkpt lat="53.8876940" lon="15.7071397">
<ele>84</ele>
<time>2017-12-04T17:15:57Z</time>
</trkpt>
<trkpt lat="53.8874065" lon="15.7065811">
<ele>84</ele>
<time>2017-12-04T17:16:03Z</time>
</trkpt>
<trkpt lat="53.8870035" lon="15.7066793">
<ele>85</ele>
<time>2017-12-04T17:16:09Z</time>
</trkpt>
<trkpt lat="53.8865702" lon="15.7063706">
<ele>84</ele>
<time>2017-12-04T17:16:15Z</time>
</trkpt>
<trkpt lat="53.8863011" lon="15.7054124">
<ele>84</ele>
<time>2017-12-04T17:16:21Z</time>
</trkpt>
<trkpt lat="53.8860510" lon="15.7042564">
<ele>83</ele>
<time>2017-12-04T17:16:27Z</time>
</trkpt>
<trkpt lat="53.8860208" lon="15.7029799">
<ele>83</ele>
<time>2017-12-04T17:16:33Z</time>
</trkpt>
<trkpt lat="53.8860094" lon="15.7017309">
<ele>84</ele>
<time>2017-12-04T17:16:39Z</time>
</trkpt>
<trkpt lat="53.8859908" lon="15.7004090">
<ele>86</ele>
<time>2017-12-04T17:16:45Z</time>
</trkpt>
<trkpt lat="53.8859735" lon="15.6990110">
<ele>86</ele>
<time>2017-12-04T17:16:51Z</time>
</trkpt>
<trkpt lat="53.8859690" lon="15.6976558">
<ele>89</ele>
<time>2017-12-04T17:16:57Z</time>
</trkpt>
<trkpt lat="53.8863237" lon="15.6966452">
<ele>89</ele>
<time>2017-12-04T17:17:03Z</time>
</trkpt>
<trkpt lat="53.8868401" lon="15.6956147">
<ele>87</ele>
<time>2017-12-04T17:17:09Z</time>
</trkpt>
<trkpt lat="53.8872209" lon="15.6943211">
<ele>86</ele>
<time>2017-12-04T17:17:15Z</time>
</trkpt>
<trkpt lat="53.8878196" lon="15.6913944">
<ele>88</ele>
<time>2017-12-04T17:17:27Z</time>
</trkpt>
<trkpt lat="53.8880285" lon="15.6898937">
<ele>88</ele>
<time>2017-12-04T17:17:33Z</time>
</trkpt>
<trkpt lat="53.8880870" lon="15.6883682">
<ele>89</ele>
<time>2017-12-04T17:17:39Z</time>
</trkpt>
<trkpt lat="53.8881748" lon="15.6869341">
<ele>89</ele>
<time>2017-12-04T17:17:45Z</time>
</trkpt>
<trkpt lat="53.8883718" lon="15.6855393">
<ele>88</ele>
<time>2017-12-04T17:17:51Z</time>
</trkpt>
<trkpt lat="53.8885813" lon="15.6841289">
<ele>88</ele>
<time>2017-12-04T17:17:57Z</time>
</trkpt>
<trkpt lat="53.8888161" lon="15.6827245">
<ele>88</ele>
<time>2017-12-04T17:18:03Z</time>
</trkpt>
<trkpt lat="53.8890549" lon="15.6813183">
<ele>89</ele>
<time>2017-12-04T17:18:09Z</time>
</trkpt>
<trkpt lat="53.8892882" lon="15.6799303">
<ele>91</ele>
<time>2017-12-04T17:18:15Z</time>
</trkpt>
<trkpt lat="53.8896806" lon="15.6787594">
<ele>91</ele>
<time>2017-12-04T17:18:21Z</time>
</trkpt>
<trkpt lat="53.8902475" lon="15.6777590">
<ele>90</ele>
<time>2017-12-04T17:18:27Z</time>
</trkpt>
<trkpt lat="53.8908972" lon="15.6769641">
<ele>91</ele>
<time>2017-12-04T17:18:33Z</time>
</trkpt>
<trkpt lat="53.8914610" lon="15.6759756">
<ele>92</ele>
<time>2017-12-04T17:18:39Z</time>
</trkpt>
<trkpt lat="53.8918317" lon="15.6748637">
<ele>93</ele>
<time>2017-12-04T17:18:45Z</time>
</trkpt>
<trkpt lat="53.8921795" lon="15.6738760">
<ele>94</ele>
<time>2017-12-04T17:18:51Z</time>
</trkpt>
<trkpt lat="53.8921357" lon="15.6727970">
<ele>97</ele>
<time>2017-12-04T17:18:57Z</time>
</trkpt>
<trkpt lat="53.8917834" lon="15.6718327">
<ele>97</ele>
<time>2017-12-04T17:19:03Z</time>
</trkpt>
<trkpt lat="53.8915034" lon="15.6708262">
<ele>101</ele>
<time>2017-12-04T17:19:09Z</time>
</trkpt>
<trkpt lat="53.8915064" lon="15.6697274">
<ele>103</ele>
<time>2017-12-04T17:19:15Z</time>
</trkpt>
<trkpt lat="53.8916662" lon="15.6686981">
<ele>101</ele>
<time>2017-12-04T17:19:21Z</time>
</trkpt>
<trkpt lat="53.8918488" lon="15.6675207">
<ele>99</ele>
<time>2017-12-04T17:19:27Z</time>
</trkpt>
<trkpt lat="53.8919864" lon="15.6662107">
<ele>99</ele>
<time>2017-12-04T17:19:33Z</time>
</trkpt>
<trkpt lat="53.8920017" lon="15.6647986">
<ele>100</ele>
<time>2017-12-04T17:19:39Z</time>
</trkpt>
<trkpt lat="53.8920193" lon="15.6633157">
<ele>102</ele>
<time>2017-12-04T17:19:45Z</time>
</trkpt>
<trkpt lat="53.8920279" lon="15.6617961">
<ele>102</ele>
<time>2017-12-04T17:19:51Z</time>
</trkpt>
<trkpt lat="53.8920300" lon="15.6602716">
<ele>101</ele>
<time>2017-12-04T17:19:57Z</time>
</trkpt>
<trkpt lat="53.8920365" lon="15.6588646">
<ele>101</ele>
<time>2017-12-04T17:20:03Z</time>
</trkpt>
<trkpt lat="53.8920496" lon="15.6576241">
<ele>102</ele>
<time>2017-12-04T17:20:09Z</time>
</trkpt>
<trkpt lat="53.8920572" lon="15.6563991">
<ele>101</ele>
<time>2017-12-04T17:20:21Z</time>
</trkpt>
<trkpt lat="53.8920339" lon="15.6562259">
<ele>101</ele>
<time>2017-12-04T17:20:27Z</time>
</trkpt>
<trkpt lat="53.8919712" lon="15.6561825">
<ele>100</ele>
<time>2017-12-04T17:20:33Z</time>
</trkpt>
<trkpt lat="53.8919712" lon="15.6561825">
<ele>100</ele>
<time>2017-12-04T17:20:39Z</time>
</trkpt>
<trkpt lat="53.8919712" lon="15.6561825">
<ele>100</ele>
<time>2017-12-04T17:20:45Z</time>
</trkpt>
<trkpt lat="53.8919712" lon="15.6561825">
<ele>100</ele>
<time>2017-12-04T17:20:51Z</time>
</trkpt>
<trkpt lat="53.8919712" lon="15.6561825">
<ele>100</ele>
<time>2017-12-04T17:20:57Z</time>
</trkpt>
<trkpt lat="53.8919712" lon="15.6561825">
<ele>100</ele>
<time>2017-12-04T17:21:03Z</time>
</trkpt>
<trkpt lat="53.8919712" lon="15.6561825">
<ele>100</ele>
<time>2017-12-04T17:21:09Z</time>
</trkpt>
<trkpt lat="53.8919712" lon="15.6561825">
<ele>100</ele>
<time>2017-12-04T17:21:15Z</time>
</trkpt>
<trkpt lat="53.8919712" lon="15.6561825">
<ele>100</ele>
<time>2017-12-04T17:21:21Z</time>
</trkpt>
<trkpt lat="53.8919712" lon="15.6561825">
<ele>100</ele>
<time>2017-12-04T17:21:27Z</time>
</trkpt>
<trkpt lat="53.8919712" lon="15.6561825">
<ele>100</ele>
<time>2017-12-04T17:21:33Z</time>
</trkpt>
<trkpt lat="53.8919712" lon="15.6561825">
<ele>100</ele>
<time>2017-12-04T17:21:39Z</time>
</trkpt>
<trkpt lat="53.8919712" lon="15.6561825">
<ele>100</ele>
<time>2017-12-04T17:21:45Z</time>
</trkpt>
<trkpt lat="53.8919712" lon="15.6561825">
<ele>100</ele>
<time>2017-12-04T17:21:51Z</time>
</trkpt>
<trkpt lat="53.8919712" lon="15.6561825">
<ele>100</ele>
<time>2017-12-04T17:21:57Z</time>
</trkpt>
<trkpt lat="53.8919712" lon="15.6561825">
<ele>100</ele>
<time>2017-12-04T17:22:03Z</time>
</trkpt>
<trkpt lat="53.8919712" lon="15.6561825">
<ele>100</ele>
<time>2017-12-04T17:22:09Z</time>
</trkpt>
<trkpt lat="53.8919712" lon="15.6561825">
<ele>100</ele>
<time>2017-12-04T17:22:15Z</time>
</trkpt>
<trkpt lat="53.8919712" lon="15.6561825">
<ele>100</ele>
<time>2017-12-04T17:22:21Z</time>
</trkpt>
<trkpt lat="53.8919712" lon="15.6561825">
<ele>100</ele>
<time>2017-12-04T17:22:27Z</time>
</trkpt>
<trkpt lat="53.8919712" lon="15.6561825">
<ele>100</ele>
<time>2017-12-04T17:22:33Z</time>
</trkpt>
<trkpt lat="53.8919712" lon="15.6561825">
<ele>100</ele>
<time>2017-12-04T17:22:39Z</time>
</trkpt>
<trkpt lat="53.8919712" lon="15.6561825">
<ele>100</ele>
<time>2017-12-04T17:22:45Z</time>
</trkpt>
<trkpt lat="53.8919712" lon="15.6561825">
<ele>100</ele>
<time>2017-12-04T17:22:51Z</time>
</trkpt>
<trkpt lat="53.8919712" lon="15.6561825">
<ele>100</ele>
<time>2017-12-04T17:22:57Z</time>
</trkpt>
<trkpt lat="53.8919712" lon="15.6561825">
<ele>100</ele>
<time>2017-12-04T17:23:03Z</time>
</trkpt>
<trkpt lat="53.8919712" lon="15.6561825">
<ele>100</ele>
<time>2017-12-04T17:23:09Z</time>
</trkpt>
<trkpt lat="53.8919712" lon="15.6561825">
<ele>100</ele>
<time>2017-12-04T17:23:15Z</time>
</trkpt>
<trkpt lat="53.8919712" lon="15.6561825">
<ele>100</ele>
<time>2017-12-04T17:23:21Z</time>
</trkpt>
<trkpt lat="53.8919712" lon="15.6561825">
<ele>100</ele>
<time>2017-12-04T17:23:27Z</time>
</trkpt>
<trkpt lat="53.8919712" lon="15.6561825">
<ele>100</ele>
<time>2017-12-04T17:23:33Z</time>
</trkpt>
<trkpt lat="53.8919712" lon="15.6561825">
<ele>100</ele>
<time>2017-12-04T17:23:39Z</time>
</trkpt>
<trkpt lat="53.8919456" lon="15.6561775">
<ele>100</ele>
<time>2017-12-04T17:23:45Z</time>
</trkpt>
<trkpt lat="53.8918625" lon="15.6562812">
<ele>100</ele>
<time>2017-12-04T17:23:51Z</time>
</trkpt>
<trkpt lat="53.8918482" lon="15.6563255">
<ele>100</ele>
<time>2017-12-04T17:23:57Z</time>
</trkpt>
<trkpt lat="53.8918482" lon="15.6563255">
<ele>100</ele>
<time>2017-12-04T17:24:03Z</time>
</trkpt>
<trkpt lat="53.8918482" lon="15.6563255">
<ele>100</ele>
<time>2017-12-04T17:24:09Z</time>
</trkpt>
<trkpt lat="53.8918671" lon="15.6562404">
<ele>100</ele>
<time>2017-12-04T17:24:15Z</time>
</trkpt>
<trkpt lat="53.8918829" lon="15.6561628">
<ele>101</ele>
<time>2017-12-04T17:24:21Z</time>
</trkpt>
<trkpt lat="53.8919059" lon="15.6561443">
<ele>102</ele>
<time>2017-12-04T17:24:27Z</time>
</trkpt>
<trkpt lat="53.8919059" lon="15.6561443">
<ele>102</ele>
<time>2017-12-04T17:24:33Z</time>
</trkpt>
<trkpt lat="53.8919059" lon="15.6561443">
<ele>102</ele>
<time>2017-12-04T17:24:39Z</time>
</trkpt>
<trkpt lat="53.8919059" lon="15.6561443">
<ele>102</ele>
<time>2017-12-04T17:24:45Z</time>
</trkpt>
<trkpt lat="53.8918910" lon="15.6561691">
<ele>102</ele>
<time>2017-12-04T17:24:51Z</time>
</trkpt>
<trkpt lat="53.8918562" lon="15.6562072">
<ele>101</ele>
<time>2017-12-04T17:24:57Z</time>
</trkpt>
<trkpt lat="53.8918464" lon="15.6562225">
<ele>101</ele>
<time>2017-12-04T17:25:03Z</time>
</trkpt>
<trkpt lat="53.8918464" lon="15.6562225">
<ele>101</ele>
<time>2017-12-04T17:25:09Z</time>
</trkpt>
<trkpt lat="53.8918464" lon="15.6562225">
<ele>101</ele>
<time>2017-12-04T17:25:15Z</time>
</trkpt>
<trkpt lat="53.8918464" lon="15.6562225">
<ele>101</ele>
<time>2017-12-04T17:25:21Z</time>
</trkpt>
<trkpt lat="53.8918464" lon="15.6562225">
<ele>101</ele>
<time>2017-12-04T17:25:27Z</time>
</trkpt>
<trkpt lat="53.8918464" lon="15.6562225">
<ele>101</ele>
<time>2017-12-04T17:25:33Z</time>
</trkpt>
<trkpt lat="53.8918464" lon="15.6562225">
<ele>101</ele>
<time>2017-12-04T17:25:39Z</time>
</trkpt>
<trkpt lat="53.8918464" lon="15.6562225">
<ele>101</ele>
<time>2017-12-04T17:25:45Z</time>
</trkpt>
<trkpt lat="53.8918464" lon="15.6562225">
<ele>101</ele>
<time>2017-12-04T17:25:51Z</time>
</trkpt>
<trkpt lat="53.8918464" lon="15.6562225">
<ele>101</ele>
<time>2017-12-04T17:25:57Z</time>
</trkpt>
<trkpt lat="53.8918464" lon="15.6562225">
<ele>101</ele>
<time>2017-12-04T17:26:03Z</time>
</trkpt>
<trkpt lat="53.8918515" lon="15.6562350">
<ele>101</ele>
<time>2017-12-04T17:26:09Z</time>
</trkpt>
<trkpt lat="53.8919035" lon="15.6563117">
<ele>101</ele>
<time>2017-12-04T17:26:15Z</time>
</trkpt>
<trkpt lat="53.8919685" lon="15.6563332">
<ele>101</ele>
<time>2017-12-04T17:26:21Z</time>
</trkpt>
<trkpt lat="53.8919882" lon="15.6562573">
<ele>101</ele>
<time>2017-12-04T17:26:27Z</time>
</trkpt>
<trkpt lat="" lon="">
<ele></ele>
<time>2017-12-04TZ</time>
</trkpt>
</trkseg>
</trk>
<wpt lat="" lon="">
	<name></name>
	<desc></desc>
	<cmt></cmt>
	<photoid></photoid>
	<type></type>
</wpt>
</gpx>
